Observation data for Snyder SSW on 01/12/2018      Previous  Date  Next       Current Mesonet Observations  Soil Data  Daily Summary Page  Observations in Plain Language
KWT1 120600Z 03006KT M01/M10 A3029 RMK A01 T10061098  RH  050%=      5-min Rain = 0
KWT1 120601Z 03005KT M01/M10 A3029 RMK A01 T10061098  RH  050%=      5-min Rain = 0
KWT1 120602Z 03005KT M01/M10 A3029 RMK A01 T10071098  RH  050%=      5-min Rain = 0
KWT1 120603Z 03005KT M01/M10 A3029 RMK A01 T10061098  RH  050%=      5-min Rain = 0
KWT1 120604Z 03005KT M01/M10 A3029 RMK A01 T10071098  RH  050%=      5-min Rain = 0
KWT1 120605Z 03005KT M01/M10 A3029 RMK A01 T10061098  RH  050%=      5-min Rain = 0
KWT1 120606Z 02004KT M01/M10 A3029 RMK A01 T10071098  RH  050%=      5-min Rain = 0
KWT1 120607Z 02004KT M01/M10 A3029 RMK A01 T10061098  RH  050%=      5-min Rain = 0
KWT1 120608Z 01004KT M01/M10 A3029 RMK A01 T10061099  RH  050%=      5-min Rain = 0
KWT1 120609Z 01005KT M01/M10 A3029 RMK A01 T10061099  RH  050%=      5-min Rain = 0
KWT1 120610Z 01005KT M01/M10 A3029 RMK A01 T10051098  RH  050%=      5-min Rain = 0
KWT1 120611Z 01005KT M01/M10 A3029 RMK A01 T10051098  RH  049%=      5-min Rain = 0
KWT1 120612Z 02005KT M01/M10 A3029 RMK A01 T10061099  RH  049%=      5-min Rain = 0
KWT1 120613Z 02006KT M01/M10 A3029 RMK A01 T10071100  RH  049%=      5-min Rain = 0
KWT1 120614Z 03005KT M01/M10 A3029 RMK A01 T10081100  RH  050%=      5-min Rain = 0
KWT1 120615Z 03005KT M01/M10 A3029 RMK A01 T10091100  RH  050%=      5-min Rain = 0
KWT1 120616Z 03005KT M01/M10 A3029 RMK A01 T10101100  RH  050%=      5-min Rain = 0
KWT1 120617Z 03005KT M01/M10 A3029 RMK A01 T10101100  RH  051%=      5-min Rain = 0
KWT1 120618Z 03005KT M01/M10 A3029 RMK A01 T10101099  RH  051%=      5-min Rain = 0
KWT1 120619Z 03005KT M01/M10 A3029 RMK A01 T10101099  RH  051%=      5-min Rain = 0
KWT1 120620Z 03005KT M01/M10 A3029 RMK A01 T10101099  RH  051%=      5-min Rain = 0
KWT1 120621Z 03005KT M01/M10 A3029 RMK A01 T10101099  RH  051%=      5-min Rain = 0
KWT1 120622Z 03005KT M01/M10 A3029 RMK A01 T10091099  RH  051%=      5-min Rain = 0
KWT1 120623Z 03005KT M01/M10 A3029 RMK A01 T10091099  RH  051%=      5-min Rain = 0
KWT1 120624Z 03005KT M01/M10 A3029 RMK A01 T10101099  RH  051%=      5-min Rain = 0
KWT1 120625Z 03005KT M01/M10 A3029 RMK A01 T10111099  RH  051%=      5-min Rain = 0
KWT1 120626Z 03005KT M01/M10 A3029 RMK A01 T10111099  RH  051%=      5-min Rain = 0
KWT1 120627Z 03004KT M01/M10 A3029 RMK A01 T10121099  RH  052%=      5-min Rain = 0
KWT1 120628Z 03004KT M01/M10 A3029 RMK A01 T10121098  RH  052%=      5-min Rain = 0
KWT1 120629Z 03004KT M01/M10 A3029 RMK A01 T10111098  RH  052%=      5-min Rain = 0
KWT1 120630Z 03005KT M01/M10 A3029 RMK A01 T10111098  RH  052%=      5-min Rain = 0
KWT1 120631Z 03004KT M01/M10 A3029 RMK A01 T10111098  RH  051%=      5-min Rain = 0
KWT1 120632Z 02004KT M01/M10 A3029 RMK A01 T10111099  RH  051%=      5-min Rain = 0
KWT1 120633Z 02005KT M01/M10 A303 RMK A01 T10111099  RH  051%=      5-min Rain = 0
KWT1 120634Z 02004KT M01/M10 A303 RMK A01 T10111099  RH  051%=      5-min Rain = 0
KWT1 120635Z 01004KT M01/M10 A303 RMK A01 T10111099  RH  051%=      5-min Rain = 0
KWT1 120636Z 01004KT M01/M10 A303 RMK A01 T10111099  RH  051%=      5-min Rain = 0
KWT1 120637Z 02005KT M01/M10 A303 RMK A01 T10111098  RH  051%=      5-min Rain = 0
KWT1 120638Z 02005KT M01/M10 A303 RMK A01 T10111099  RH  051%=      5-min Rain = 0
KWT1 120639Z 02005KT M01/M10 A303 RMK A01 T10121100  RH  051%=      5-min Rain = 0
KWT1 120640Z 02005KT M01/M10 A303 RMK A01 T10131100  RH  051%=      5-min Rain = 0
KWT1 120641Z 02005KT M01/M10 A303 RMK A01 T10141100  RH  052%=      5-min Rain = 0
KWT1 120642Z 02005KT M02/M10 A303 RMK A01 T10151100  RH  052%=      5-min Rain = 0
KWT1 120643Z 02005KT M02/M10 A303 RMK A01 T10161101  RH  052%=      5-min Rain = 0
KWT1 120644Z 02005KT M02/M10 A303 RMK A01 T10171101  RH  053%=      5-min Rain = 0
KWT1 120645Z 02006KT M02/M10 A303 RMK A01 T10171100  RH  053%=      5-min Rain = 0
KWT1 120646Z 02006KT M02/M10 A303 RMK A01 T10181101  RH  053%=      5-min Rain = 0
KWT1 120647Z 02006KT M02/M10 A303 RMK A01 T10191101  RH  053%=      5-min Rain = 0
KWT1 120648Z 02005KT M02/M10 A303 RMK A01 T10201101  RH  054%=      5-min Rain = 0
KWT1 120649Z 02005KT M02/M10 A303 RMK A01 T10201101  RH  054%=      5-min Rain = 0
KWT1 120650Z 02005KT M02/M10 A303 RMK A01 T10211102  RH  054%=      5-min Rain = 0
KWT1 120651Z 02004KT M02/M10 A303 RMK A01 T10211101  RH  054%=      5-min Rain = 0
KWT1 120652Z 01004KT M02/M10 A303 RMK A01 T10211101  RH  054%=      5-min Rain = 0
KWT1 120653Z 01004KT M02/M10 A303 RMK A01 T10201100  RH  054%=      5-min Rain = 0
KWT1 120654Z 01004KT M02/M10 A303 RMK A01 T10201099  RH  054%=      5-min Rain = 0
KWT1 120655Z 02003KT M02/M10 A303 RMK A01 T10191099  RH  054%=      5-min Rain = 0
KWT1 120656Z 01003KT M02/M10 A303 RMK A01 T10181099  RH  054%=      5-min Rain = 0
KWT1 120657Z 01003KT M02/M10 A303 RMK A01 T10181099  RH  054%=      5-min Rain = 0
KWT1 120658Z 01003KT M02/M10 A303 RMK A01 T10171098  RH  054%=      5-min Rain = 0
KWT1 120659Z 01003KT M02/M10 A303 RMK A01 T10171098  RH  054%=      5-min Rain = 0
KWT1 120700Z 01003KT M02/M10 A303 RMK A01 T10161098  RH  054%=      5-min Rain = 0
KWT1 120701Z 01003KT M02/M10 A303 RMK A01 T10151098  RH  053%=      5-min Rain = 0
KWT1 120702Z 01003KT M02/M10 A303 RMK A01 T10151098  RH  053%=      5-min Rain = 0
KWT1 120703Z 01003KT M02/M10 A303 RMK A01 T10151098  RH  053%=      5-min Rain = 0
KWT1 120704Z 01003KT M01/M10 A303 RMK A01 T10141098  RH  053%=      5-min Rain = 0
KWT1 120705Z 01003KT M01/M10 A303 RMK A01 T10141098  RH  053%=      5-min Rain = 0
KWT1 120706Z 01003KT M01/M10 A303 RMK A01 T10141098  RH  053%=      5-min Rain = 0
KWT1 120707Z 01004KT M01/M10 A303 RMK A01 T10141098  RH  053%=      5-min Rain = 0
KWT1 120708Z 01004KT M01/M10 A303 RMK A01 T10131098  RH  053%=      5-min Rain = 0
KWT1 120709Z 01004KT M01/M10 A303 RMK A01 T10141099  RH  053%=      5-min Rain = 0
KWT1 120710Z 01004KT M02/M10 A303 RMK A01 T10151099  RH  053%=      5-min Rain = 0
KWT1 120711Z 01004KT M02/M10 A303 RMK A01 T10151099  RH  053%=      5-min Rain = 0
KWT1 120712Z 01004KT M02/M10 A303 RMK A01 T10151099  RH  053%=      5-min Rain = 0
KWT1 120713Z 01004KT M02/M10 A303 RMK A01 T10161099  RH  053%=      5-min Rain = 0
KWT1 120714Z 02005KT M02/M10 A303 RMK A01 T10161099  RH  053%=      5-min Rain = 0
KWT1 120715Z 02005KT M02/M10 A303 RMK A01 T10161099  RH  053%=      5-min Rain = 0
KWT1 120716Z 02005KT M02/M10 A303 RMK A01 T10171099  RH  054%=      5-min Rain = 0
KWT1 120717Z 02005KT M02/M10 A303 RMK A01 T10171099  RH  054%=      5-min Rain = 0
KWT1 120718Z 02006KT M02/M10 A303 RMK A01 T10181099  RH  054%=      5-min Rain = 0
KWT1 120719Z 02005KT M02/M10 A3029 RMK A01 T10191100  RH  054%=      5-min Rain = 0
KWT1 120720Z 03005KT M02/M10 A3029 RMK A01 T10191099  RH  054%=      5-min Rain = 0
KWT1 120721Z 02005KT M02/M10 A3029 RMK A01 T10201099  RH  054%=      5-min Rain = 0
KWT1 120722Z 03005KT M02/M10 A3029 RMK A01 T10201099  RH  055%=      5-min Rain = 0
KWT1 120723Z 03005KT M02/M10 A3029 RMK A01 T10201099  RH  055%=      5-min Rain = 0
KWT1 120724Z 03005KT M02/M10 A3029 RMK A01 T10211099  RH  055%=      5-min Rain = 0
KWT1 120725Z 04004KT M02/M10 A3029 RMK A01 T10211099  RH  055%=      5-min Rain = 0
KWT1 120726Z 03004KT M02/M10 A3029 RMK A01 T10211100  RH  055%=      5-min Rain = 0
KWT1 120727Z 03004KT M02/M10 A3029 RMK A01 T10211100  RH  055%=      5-min Rain = 0
KWT1 120728Z 03004KT M02/M10 A3029 RMK A01 T10211100  RH  055%=      5-min Rain = 0
KWT1 120729Z 03004KT M02/M10 A3029 RMK A01 T10211100  RH  055%=      5-min Rain = 0
KWT1 120730Z 03004KT M02/M10 A3029 RMK A01 T10211100  RH  055%=      5-min Rain = 0
KWT1 120731Z 04004KT M02/M10 A3029 RMK A01 T10221099  RH  055%=      5-min Rain = 0
KWT1 120732Z 04004KT M02/M10 A3029 RMK A01 T10211099  RH  055%=      5-min Rain = 0
KWT1 120733Z 04004KT M02/M10 A3029 RMK A01 T10211098  RH  055%=      5-min Rain = 0
KWT1 120734Z 04004KT M02/M10 A3029 RMK A01 T10201098  RH  055%=      5-min Rain = 0
KWT1 120735Z 04004KT M02/M10 A3029 RMK A01 T10191098  RH  055%=      5-min Rain = 0
KWT1 120736Z 04004KT M02/M10 A3029 RMK A01 T10181098  RH  055%=      5-min Rain = 0
KWT1 120737Z 04005KT M02/M10 A3029 RMK A01 T10171098  RH  054%=      5-min Rain = 0
KWT1 120738Z 04005KT M02/M10 A3029 RMK A01 T10171098  RH  054%=      5-min Rain = 0
KWT1 120739Z 05005KT M02/M10 A3029 RMK A01 T10171099  RH  054%=      5-min Rain = 0
KWT1 120740Z 05005KT M02/M10 A3029 RMK A01 T10181099  RH  054%=      5-min Rain = 0
KWT1 120741Z 05005KT M02/M10 A3029 RMK A01 T10191099  RH  054%=      5-min Rain = 0
KWT1 120742Z 05005KT M02/M10 A3029 RMK A01 T10191099  RH  054%=      5-min Rain = 0
KWT1 120743Z 06005KT M02/M10 A3028 RMK A01 T10201099  RH  055%=      5-min Rain = 0
KWT1 120744Z 05006KT M02/M10 A3028 RMK A01 T10211099  RH  055%=      5-min Rain = 0
KWT1 120745Z 05006KT M02/M10 A3028 RMK A01 T10221099  RH  055%=      5-min Rain = 0
KWT1 120746Z 05006KT M02/M10 A3028 RMK A01 T10221098  RH  056%=      5-min Rain = 0
KWT1 120747Z 05006KT M02/M10 A3028 RMK A01 T10221096  RH  057%=      5-min Rain = 0
KWT1 120748Z 05005KT M02/M10 A3028 RMK A01 T10221096  RH  057%=      5-min Rain = 0
KWT1 120749Z 05005KT M02/M10 A3028 RMK A01 T10221095  RH  057%=      5-min Rain = 0
KWT1 120750Z 05006KT M02/M10 A3028 RMK A01 T10221095  RH  057%=      5-min Rain = 0
KWT1 120751Z 05006KT M02/M10 A3028 RMK A01 T10221095  RH  057%=      5-min Rain = 0
KWT1 120752Z 05006KT M02/M10 A3028 RMK A01 T10221095  RH  057%=      5-min Rain = 0
KWT1 120753Z 05006KT M02/M10 A3028 RMK A01 T10221095  RH  057%=      5-min Rain = 0
KWT1 120754Z 06006KT M02/M10 A3028 RMK A01 T10221096  RH  057%=      5-min Rain = 0
KWT1 120755Z 05006KT M02/M10 A3028 RMK A01 T10231097  RH  057%=      5-min Rain = 0
KWT1 120756Z 05006KT M02/M10 A3028 RMK A01 T10241097  RH  057%=      5-min Rain = 0
KWT1 120757Z 05006KT M02/M10 A3028 RMK A01 T10241097  RH  057%=      5-min Rain = 0
KWT1 120758Z 05006KT M03/M10 A3028 RMK A01 T10251097  RH  057%=      5-min Rain = 0
KWT1 120759Z 05006KT M03/M10 A3028 RMK A01 T10251097  RH  058%=      5-min Rain = 0
KWT1 120800Z 05006KT M03/M10 A3028 RMK A01 T10261097  RH  058%=      5-min Rain = 0
KWT1 120801Z 05005KT M03/M10 A3028 RMK A01 T10261097  RH  058%=      5-min Rain = 0
KWT1 120802Z 05005KT M03/M10 A3028 RMK A01 T10271096  RH  059%=      5-min Rain = 0
KWT1 120803Z 05005KT M03/M10 A3028 RMK A01 T10271096  RH  059%=      5-min Rain = 0
KWT1 120804Z 05006KT M03/M10 A3028 RMK A01 T10281096  RH  059%=      5-min Rain = 0
KWT1 120805Z 05005KT M03/M10 A3028 RMK A01 T10281097  RH  059%=      5-min Rain = 0
KWT1 120806Z 05005KT M03/M10 A3028 RMK A01 T10281097  RH  059%=      5-min Rain = 0
KWT1 120807Z 04005KT M03/M10 A3028 RMK A01 T10281098  RH  059%=      5-min Rain = 0
KWT1 120808Z 04005KT M03/M10 A3028 RMK A01 T10291098  RH  059%=      5-min Rain = 0
KWT1 120809Z 04005KT M03/M10 A3028 RMK A01 T10291098  RH  059%=      5-min Rain = 0
KWT1 120810Z 04004KT M03/M10 A3028 RMK A01 T10301099  RH  059%=      5-min Rain = 0
KWT1 120811Z 04005KT M03/M10 A3028 RMK A01 T10301098  RH  059%=      5-min Rain = 0
KWT1 120812Z 04005KT M03/M10 A3028 RMK A01 T10301099  RH  059%=      5-min Rain = 0
KWT1 120813Z 04004KT M03/M10 A3028 RMK A01 T10301099  RH  059%=      5-min Rain = 0
KWT1 120814Z 03005KT M03/M10 A3028 RMK A01 T10301099  RH  059%=      5-min Rain = 0
KWT1 120815Z 03004KT M03/M10 A3028 RMK A01 T10301099  RH  059%=      5-min Rain = 0
KWT1 120816Z 03004KT M03/M10 A3028 RMK A01 T10301100  RH  059%=      5-min Rain = 0
KWT1 120817Z 03005KT M03/M10 A3028 RMK A01 T10311100  RH  059%=      5-min Rain = 0
KWT1 120818Z 03005KT M03/M10 A3028 RMK A01 T10321100  RH  059%=      5-min Rain = 0
KWT1 120819Z 03005KT M03/M10 A3028 RMK A01 T10321101  RH  059%=      5-min Rain = 0
KWT1 120820Z 02004KT M03/M10 A3028 RMK A01 T10331101  RH  059%=      5-min Rain = 0
KWT1 120821Z 02004KT M03/M10 A3028 RMK A01 T10331101  RH  059%=      5-min Rain = 0
KWT1 120822Z 02004KT M03/M10 A3029 RMK A01 T10331101  RH  060%=      5-min Rain = 0
KWT1 120823Z 01004KT M03/M10 A3029 RMK A01 T10331100  RH  060%=      5-min Rain = 0
KWT1 120824Z 01004KT M03/M10 A3029 RMK A01 T10331100  RH  060%=      5-min Rain = 0
KWT1 120825Z 00004KT M03/M10 A3029 RMK A01 T10321100  RH  060%=      5-min Rain = 0
KWT1 120826Z 00003KT M03/M10 A3029 RMK A01 T10331100  RH  060%=      5-min Rain = 0
KWT1 120827Z 36003KT M03/M10 A3029 RMK A01 T10321100  RH  060%=      5-min Rain = 0
KWT1 120828Z 00004KT M03/M10 A3029 RMK A01 T10331100  RH  060%=      5-min Rain = 0
KWT1 120829Z 36004KT M03/M10 A3029 RMK A01 T10321099  RH  060%=      5-min Rain = 0
KWT1 120830Z 36004KT M03/M10 A3029 RMK A01 T10321098  RH  060%=      5-min Rain = 0
KWT1 120831Z 36004KT M03/M10 A3029 RMK A01 T10321099  RH  060%=      5-min Rain = 0
KWT1 120832Z 36004KT M03/M10 A3029 RMK A01 T10311099  RH  060%=      5-min Rain = 0
KWT1 120833Z 00004KT M03/M10 A3029 RMK A01 T10311099  RH  060%=      5-min Rain = 0
KWT1 120834Z 00004KT M03/M10 A3029 RMK A01 T10301098  RH  060%=      5-min Rain = 0
KWT1 120835Z 36004KT M03/M10 A3029 RMK A01 T10301098  RH  060%=      5-min Rain = 0
KWT1 120836Z 35004KT M03/M10 A3029 RMK A01 T10301098  RH  059%=      5-min Rain = 0
KWT1 120837Z 35004KT M03/M10 A3029 RMK A01 T10291098  RH  059%=      5-min Rain = 0
KWT1 120838Z 35003KT M03/M10 A3029 RMK A01 T10291098  RH  059%=      5-min Rain = 0
KWT1 120839Z 35004KT M03/M10 A3029 RMK A01 T10291097  RH  059%=      5-min Rain = 0
KWT1 120840Z 36004KT M03/M10 A3029 RMK A01 T10281097  RH  059%=      5-min Rain = 0
KWT1 120841Z 35003KT M03/M10 A3029 RMK A01 T10271096  RH  059%=      5-min Rain = 0
KWT1 120842Z 35003KT M03/M10 A3029 RMK A01 T10261096  RH  059%=      5-min Rain = 0
KWT1 120843Z 00003KT M03/M10 A3029 RMK A01 T10261096  RH  059%=      5-min Rain = 0
KWT1 120844Z 36003KT M03/M10 A3029 RMK A01 T10251095  RH  058%=      5-min Rain = 0
KWT1 120845Z 35003KT M02/M10 A3029 RMK A01 T10241095  RH  058%=      5-min Rain = 0
KWT1 120846Z 35003KT M02/M10 A3029 RMK A01 T10241095  RH  058%=      5-min Rain = 0
KWT1 120847Z 35003KT M02/M10 A3029 RMK A01 T10231095  RH  058%=      5-min Rain = 0
KWT1 120848Z 00003KT M02/M10 A3029 RMK A01 T10231096  RH  058%=      5-min Rain = 0
KWT1 120849Z 36003KT M02/M10 A3029 RMK A01 T10221095  RH  058%=      5-min Rain = 0
KWT1 120850Z 36004KT M02/M09 A3029 RMK A01 T10211094  RH  057%=      5-min Rain = 0
KWT1 120851Z 36004KT M02/M10 A3029 RMK A01 T10211095  RH  057%=      5-min Rain = 0
KWT1 120852Z 36004KT M02/M10 A3029 RMK A01 T10231096  RH  057%=      5-min Rain = 0
KWT1 120853Z 36004KT M02/M10 A3029 RMK A01 T10241097  RH  057%=      5-min Rain = 0
KWT1 120854Z 00004KT M03/M10 A3029 RMK A01 T10251097  RH  058%=      5-min Rain = 0
KWT1 120855Z 00005KT M03/M10 A3029 RMK A01 T10261097  RH  058%=      5-min Rain = 0
KWT1 120856Z 00005KT M03/M10 A3029 RMK A01 T10271097  RH  058%=      5-min Rain = 0
KWT1 120857Z 00004KT M03/M10 A3029 RMK A01 T10271097  RH  059%=      5-min Rain = 0
KWT1 120858Z 00004KT M03/M10 A3029 RMK A01 T10271096  RH  059%=      5-min Rain = 0
KWT1 120859Z 00004KT M03/M10 A3029 RMK A01 T10281097  RH  059%=      5-min Rain = 0
KWT1 120900Z 36004KT M03/M10 A3029 RMK A01 T10281096  RH  059%=      5-min Rain = 0
KWT1 120901Z 36004KT M03/M10 A3029 RMK A01 T10281096  RH  059%=      5-min Rain = 0
KWT1 120902Z 36004KT M03/M10 A3029 RMK A01 T10281096  RH  059%=      5-min Rain = 0
KWT1 120903Z 36003KT M03/M10 A3029 RMK A01 T10281096  RH  059%=      5-min Rain = 0
KWT1 120904Z 35003KT M03/M10 A3029 RMK A01 T10281096  RH  059%=      5-min Rain = 0
KWT1 120905Z 35003KT M03/M10 A3029 RMK A01 T10281096  RH  059%=      5-min Rain = 0
KWT1 120906Z 35003KT M03/M10 A3029 RMK A01 T10281096  RH  060%=      5-min Rain = 0
KWT1 120907Z 35003KT M03/M10 A3029 RMK A01 T10281096  RH  060%=      5-min Rain = 0
KWT1 120908Z 35002KT M03/M10 A3029 RMK A01 T10291096  RH  060%=      5-min Rain = 0
KWT1 120909Z 34002KT M03/M10 A3029 RMK A01 T10291096  RH  060%=      5-min Rain = 0
KWT1 120910Z 33003KT M03/M10 A3029 RMK A01 T10291096  RH  060%=      5-min Rain = 0
KWT1 120911Z 33003KT M03/M10 A3029 RMK A01 T10291096  RH  060%=      5-min Rain = 0
KWT1 120912Z 33003KT M03/M10 A3029 RMK A01 T10291096  RH  060%=      5-min Rain = 0
KWT1 120913Z 33003KT M03/M10 A3029 RMK A01 T10291096  RH  060%=      5-min Rain = 0
KWT1 120914Z 34003KT M03/M10 A3029 RMK A01 T10291096  RH  060%=      5-min Rain = 0
KWT1 120915Z 34003KT M03/M10 A3029 RMK A01 T10301096  RH  060%=      5-min Rain = 0
KWT1 120916Z 34003KT M03/M10 A3029 RMK A01 T10291096  RH  060%=      5-min Rain = 0
KWT1 120917Z 34003KT M03/M10 A3029 RMK A01 T10301096  RH  060%=      5-min Rain = 0
KWT1 120918Z 34003KT M03/M10 A3029 RMK A01 T10291095  RH  060%=      5-min Rain = 0
KWT1 120919Z 35003KT M03/M10 A3029 RMK A01 T10291095  RH  060%=      5-min Rain = 0
KWT1 120920Z 35003KT M03/M09 A3029 RMK A01 T10281094  RH  060%=      5-min Rain = 0
KWT1 120921Z 35002KT M03/M09 A3029 RMK A01 T10281094  RH  060%=      5-min Rain = 0
KWT1 120922Z 35002KT M03/M09 A3029 RMK A01 T10271094  RH  060%=      5-min Rain = 0
KWT1 120923Z 34001KT M03/M10 A3029 RMK A01 T10271095  RH  060%=      5-min Rain = 0
KWT1 120924Z 34002KT M03/M10 A3029 RMK A01 T10271095  RH  060%=      5-min Rain = 0
KWT1 120925Z 33002KT M03/M10 A3029 RMK A01 T10271095  RH  059%=      5-min Rain = 0
KWT1 120926Z 34002KT M03/M09 A3029 RMK A01 T10261094  RH  059%=      5-min Rain = 0
KWT1 120927Z 34002KT M03/M09 A3029 RMK A01 T10261094  RH  059%=      5-min Rain = 0
KWT1 120928Z 35002KT M03/M10 A3029 RMK A01 T10261095  RH  059%=      5-min Rain = 0
KWT1 120929Z 36002KT M03/M09 A3029 RMK A01 T10251094  RH  059%=      5-min Rain = 0
KWT1 120930Z 01002KT M03/M10 A3029 RMK A01 T10261095  RH  059%=      5-min Rain = 0
KWT1 120931Z 01002KT M03/M10 A3029 RMK A01 T10261095  RH  059%=      5-min Rain = 0
KWT1 120932Z 02003KT M03/M10 A3029 RMK A01 T10271095  RH  059%=      5-min Rain = 0
KWT1 120933Z 02003KT M03/M09 A3029 RMK A01 T10261094  RH  060%=      5-min Rain = 0
KWT1 120934Z 02003KT M03/M09 A3029 RMK A01 T10261094  RH  059%=      5-min Rain = 0
KWT1 120935Z 01003KT M03/M09 A3029 RMK A01 T10251094  RH  059%=      5-min Rain = 0
KWT1 120936Z 00002KT M03/M09 A3029 RMK A01 T10251094  RH  059%=      5-min Rain = 0
KWT1 120937Z 00002KT M03/M10 A3029 RMK A01 T10251095  RH  059%=      5-min Rain = 0
KWT1 120938Z 36002KT M03/M10 A3029 RMK A01 T10261095  RH  059%=      5-min Rain = 0
KWT1 120939Z 35003KT M03/M10 A3029 RMK A01 T10271096  RH  059%=      5-min Rain = 0
KWT1 120940Z 36003KT M03/M10 A3029 RMK A01 T10281096  RH  059%=      5-min Rain = 0
KWT1 120941Z 00003KT M03/M10 A3029 RMK A01 T10281096  RH  060%=      5-min Rain = 0
KWT1 120942Z 00003KT M03/M10 A3029 RMK A01 T10281096  RH  060%=      5-min Rain = 0
KWT1 120943Z 00003KT M03/M10 A3029 RMK A01 T10281095  RH  060%=      5-min Rain = 0
KWT1 120944Z 01003KT M03/M10 A3029 RMK A01 T10281095  RH  060%=      5-min Rain = 0
KWT1 120945Z 01004KT M03/M10 A3029 RMK A01 T10281095  RH  060%=      5-min Rain = 0
KWT1 120946Z 02004KT M03/M10 A3029 RMK A01 T10281095  RH  060%=      5-min Rain = 0
KWT1 120947Z 02004KT M03/M10 A3029 RMK A01 T10281096  RH  060%=      5-min Rain = 0
KWT1 120948Z 02003KT M03/M10 A3029 RMK A01 T10291096  RH  060%=      5-min Rain = 0
KWT1 120949Z 02003KT M03/M10 A3029 RMK A01 T10301096  RH  060%=      5-min Rain = 0
KWT1 120950Z 02003KT M03/M10 A3029 RMK A01 T10301096  RH  060%=      5-min Rain = 0
KWT1 120951Z 01002KT M03/M10 A3029 RMK A01 T10301096  RH  061%=      5-min Rain = 0
KWT1 120952Z 01002KT M03/M10 A3029 RMK A01 T10301095  RH  061%=      5-min Rain = 0
KWT1 120953Z 01002KT M03/M10 A3029 RMK A01 T10301095  RH  061%=      5-min Rain = 0
KWT1 120954Z 01002KT M03/M10 A3029 RMK A01 T10311096  RH  061%=      5-min Rain = 0
KWT1 120955Z 00002KT M03/M10 A3029 RMK A01 T10311096  RH  061%=      5-min Rain = 0
KWT1 120956Z 35002KT M03/M10 A3029 RMK A01 T10321096  RH  061%=      5-min Rain = 0
KWT1 120957Z 34003KT M03/M10 A3029 RMK A01 T10321096  RH  061%=      5-min Rain = 0
KWT1 120958Z 34002KT M03/M10 A3029 RMK A01 T10321097  RH  061%=      5-min Rain = 0
KWT1 120959Z 34002KT M03/M10 A3029 RMK A01 T10331098  RH  061%=      5-min Rain = 0
KWT1 121000Z 34002KT M03/M10 A303 RMK A01 T10341098  RH  061%=      5-min Rain = 0
KWT1 121001Z 35002KT M03/M10 A303 RMK A01 T10341097  RH  062%=      5-min Rain = 0
KWT1 121002Z 01002KT M03/M10 A303 RMK A01 T10341096  RH  062%=      5-min Rain = 0
KWT1 121003Z 03002KT M03/M10 A303 RMK A01 T10341097  RH  062%=      5-min Rain = 0
KWT1 121004Z 04002KT M04/M10 A303 RMK A01 T10351097  RH  062%=      5-min Rain = 0
KWT1 121005Z 04003KT M03/M10 A303 RMK A01 T10341096  RH  062%=      5-min Rain = 0
KWT1 121006Z 04002KT M03/M10 A303 RMK A01 T10331095  RH  062%=      5-min Rain = 0
KWT1 121007Z 03002KT M03/M10 A3029 RMK A01 T10321095  RH  062%=      5-min Rain = 0
KWT1 121008Z 02003KT M03/M09 A3029 RMK A01 T10311094  RH  062%=      5-min Rain = 0
KWT1 121009Z 01003KT M03/M09 A3029 RMK A01 T10301094  RH  061%=      5-min Rain = 0
KWT1 121010Z 02003KT M03/M10 A3029 RMK A01 T10301095  RH  061%=      5-min Rain = 0
KWT1 121011Z 03003KT M03/M10 A3029 RMK A01 T10321098  RH  061%=      5-min Rain = 0
KWT1 121012Z 03004KT M03/M10 A3029 RMK A01 T10341098  RH  061%=      5-min Rain = 0
KWT1 121013Z 04004KT M04/M10 A3029 RMK A01 T10351097  RH  062%=      5-min Rain = 0
KWT1 121014Z 04003KT M04/M10 A3029 RMK A01 T10361097  RH  062%=      5-min Rain = 0
KWT1 121015Z 04003KT M04/M10 A3029 RMK A01 T10361097  RH  063%=      5-min Rain = 0
KWT1 121016Z 04002KT M04/M10 A3029 RMK A01 T10361097  RH  063%=      5-min Rain = 0
KWT1 121017Z 04002KT M04/M10 A3029 RMK A01 T10361097  RH  063%=      5-min Rain = 0
KWT1 121018Z 04002KT M04/M10 A3029 RMK A01 T10371097  RH  063%=      5-min Rain = 0
KWT1 121019Z 04002KT M04/M10 A3028 RMK A01 T10371097  RH  063%=      5-min Rain = 0
KWT1 121020Z 05002KT M04/M10 A3028 RMK A01 T10391098  RH  063%=      5-min Rain = 0
KWT1 121021Z 05003KT M04/M10 A3028 RMK A01 T10391097  RH  064%=      5-min Rain = 0
KWT1 121022Z 06003KT M04/M10 A3028 RMK A01 T10391097  RH  064%=      5-min Rain = 0
KWT1 121023Z 05002KT M04/M10 A3028 RMK A01 T10391097  RH  064%=      5-min Rain = 0
KWT1 121024Z 04002KT M04/M10 A3028 RMK A01 T10391097  RH  064%=      5-min Rain = 0
KWT1 121025Z 04002KT M04/M10 A3028 RMK A01 T10391097  RH  064%=      5-min Rain = 0
KWT1 121026Z 04002KT M04/M10 A3028 RMK A01 T10391097  RH  064%=      5-min Rain = 0
KWT1 121027Z 04002KT M04/M10 A3028 RMK A01 T10391097  RH  064%=      5-min Rain = 0
KWT1 121028Z 05002KT M04/M10 A3028 RMK A01 T10391097  RH  064%=      5-min Rain = 0
KWT1 121029Z 06002KT M04/M10 A3028 RMK A01 T10391097  RH  064%=      5-min Rain = 0
KWT1 121030Z 06002KT M04/M10 A3028 RMK A01 T10391097  RH  064%=      5-min Rain = 0
KWT1 121031Z 06002KT M04/M10 A3028 RMK A01 T10401099  RH  064%=      5-min Rain = 0
KWT1 121032Z 06002KT M04/M10 A3028 RMK A01 T10411101  RH  063%=      5-min Rain = 0
KWT1 121033Z 06001KT M04/M10 A3028 RMK A01 T10431101  RH  064%=      5-min Rain = 0
KWT1 121034Z 06001KT M04/M10 A3028 RMK A01 T10431100  RH  065%=      5-min Rain = 0
KWT1 121035Z 06000KT M04/M10 A3028 RMK A01 T10431099  RH  065%=      5-min Rain = 0
KWT1 121036Z 00000KT M04/M10 A3028 RMK A01 T10421097  RH  066%=      5-min Rain = 0
KWT1 121037Z 00000KT M04/M10 A3028 RMK A01 T10411096  RH  066%=      5-min Rain = 0
KWT1 121038Z 00000KT M04/M10 A3028 RMK A01 T10401096  RH  065%=      5-min Rain = 0
KWT1 121039Z 06000KT M04/M10 A3028 RMK A01 T10401096  RH  065%=      5-min Rain = 0
KWT1 121040Z 03001KT M04/M10 A3028 RMK A01 T10391096  RH  065%=      5-min Rain = 0
KWT1 121041Z 05002KT M04/M10 A3028 RMK A01 T10391096  RH  064%=      5-min Rain = 0
KWT1 121042Z 06003KT M04/M10 A3027 RMK A01 T10391096  RH  065%=      5-min Rain = 0
KWT1 121043Z 08003KT M04/M10 A3027 RMK A01 T10381096  RH  064%=      5-min Rain = 0
KWT1 121044Z 10003KT M04/M10 A3027 RMK A01 T10381096  RH  064%=      5-min Rain = 0
KWT1 121045Z 11002KT M04/M10 A3027 RMK A01 T10381097  RH  064%=      5-min Rain = 0
KWT1 121046Z 11001KT M04/M10 A3027 RMK A01 T10401098  RH  064%=      5-min Rain = 0
KWT1 121047Z 13001KT M04/M10 A3027 RMK A01 T10411098  RH  064%=      5-min Rain = 0
KWT1 121048Z 15001KT M04/M10 A3027 RMK A01 T10411097  RH  065%=      5-min Rain = 0
KWT1 121049Z 15001KT M04/M10 A3027 RMK A01 T10411097  RH  065%=      5-min Rain = 0
KWT1 121050Z 13001KT M04/M10 A3027 RMK A01 T10401095  RH  065%=      5-min Rain = 0
KWT1 121051Z 11001KT M04/M10 A3027 RMK A01 T10391095  RH  065%=      5-min Rain = 0
KWT1 121052Z 11002KT M04/M10 A3027 RMK A01 T10391095  RH  065%=      5-min Rain = 0
KWT1 121053Z 11003KT M04/M10 A3027 RMK A01 T10391095  RH  065%=      5-min Rain = 0
KWT1 121054Z 11003KT M04/M10 A3027 RMK A01 T10391096  RH  065%=      5-min Rain = 0
KWT1 121055Z 11003KT M04/M10 A3028 RMK A01 T10391096  RH  064%=      5-min Rain = 0
KWT1 121056Z 12003KT M04/M10 A3028 RMK A01 T10391097  RH  064%=      5-min Rain = 0
KWT1 121057Z 14002KT M04/M10 A3028 RMK A01 T10411098  RH  064%=      5-min Rain = 0
KWT1 121058Z 17002KT M04/M10 A3028 RMK A01 T10421099  RH  065%=      5-min Rain = 0
KWT1 121059Z 21002KT M04/M10 A3028 RMK A01 T10441099  RH  065%=      5-min Rain = 0
KWT1 121100Z 22003KT M05/M10 A3028 RMK A01 T10491104  RH  065%=      5-min Rain = 0
KWT1 121101Z 22002KT M05/M11 A3028 RMK A01 T10531107  RH  066%=      5-min Rain = 0
KWT1 121102Z 22002KT M05/M10 A3028 RMK A01 T10531103  RH  068%=      5-min Rain = 0
KWT1 121103Z 22000KT M05/M10 A3028 RMK A01 T10511100  RH  068%=      5-min Rain = 0
KWT1 121104Z 10002KT M05/M10 A3028 RMK A01 T10471096  RH  069%=      5-min Rain = 0
KWT1 121105Z 10002KT M05/M10 A3028 RMK A01 T10461095  RH  068%=      5-min Rain = 0
KWT1 121106Z 09003KT M04/M10 A3028 RMK A01 T10441095  RH  067%=      5-min Rain = 0
KWT1 121107Z 09003KT M04/M09 A3028 RMK A01 T10401094  RH  066%=      5-min Rain = 0
KWT1 121108Z 09002KT M04/M10 A3029 RMK A01 T10371095  RH  064%=      5-min Rain = 0
KWT1 121109Z 08001KT M04/M10 A3029 RMK A01 T10361096  RH  063%=      5-min Rain = 0
KWT1 121110Z 06000KT M04/M10 A3029 RMK A01 T10351096  RH  063%=      5-min Rain = 0
KWT1 121111Z 00000KT M04/M10 A3029 RMK A01 T10371100  RH  062%=      5-min Rain = 0
KWT1 121112Z 00000KT M04/M11 A3029 RMK A01 T10431105  RH  062%=      5-min Rain = 0
KWT1 121113Z 07000KT M05/M11 A3029 RMK A01 T10471107  RH  063%=      5-min Rain = 0
KWT1 121114Z 09001KT M05/M11 A3029 RMK A01 T10491106  RH  064%=      5-min Rain = 0
KWT1 121115Z 09002KT M05/M10 A3029 RMK A01 T10491104  RH  066%=      5-min Rain = 0
KWT1 121116Z 10002KT M05/M10 A3029 RMK A01 T10481101  RH  066%=      5-min Rain = 0
KWT1 121117Z 10002KT M05/M10 A3029 RMK A01 T10461099  RH  067%=      5-min Rain = 0
KWT1 121118Z 10002KT M04/M10 A3029 RMK A01 T10441098  RH  066%=      5-min Rain = 0
KWT1 121119Z 10002KT M04/M10 A3029 RMK A01 T10441098  RH  066%=      5-min Rain = 0
KWT1 121120Z 11002KT M04/M10 A3029 RMK A01 T10431098  RH  066%=      5-min Rain = 0
KWT1 121121Z 12002KT M04/M10 A3029 RMK A01 T10421098  RH  065%=      5-min Rain = 0
KWT1 121122Z 13002KT M04/M10 A3028 RMK A01 T10411097  RH  065%=      5-min Rain = 0
KWT1 121123Z 13001KT M04/M10 A3028 RMK A01 T10391096  RH  065%=      5-min Rain = 0
KWT1 121124Z 13001KT M04/M10 A3028 RMK A01 T10391097  RH  064%=      5-min Rain = 0
KWT1 121125Z 13001KT M04/M10 A3028 RMK A01 T10381097  RH  064%=      5-min Rain = 0
KWT1 121126Z 12001KT M04/M10 A3028 RMK A01 T10381097  RH  064%=      5-min Rain = 0
KWT1 121127Z 12002KT M04/M10 A3028 RMK A01 T10381097  RH  063%=      5-min Rain = 0
KWT1 121128Z 12002KT M04/M10 A3028 RMK A01 T10371097  RH  063%=      5-min Rain = 0
KWT1 121129Z 12002KT M04/M10 A3028 RMK A01 T10371097  RH  063%=      5-min Rain = 0
KWT1 121130Z 12002KT M04/M10 A3028 RMK A01 T10361097  RH  063%=      5-min Rain = 0
KWT1 121131Z 12002KT M04/M10 A3028 RMK A01 T10361097  RH  063%=      5-min Rain = 0
KWT1 121132Z 12001KT M04/M10 A3028 RMK A01 T10371098  RH  063%=      5-min Rain = 0
KWT1 121133Z 12001KT M04/M10 A3028 RMK A01 T10381098  RH  063%=      5-min Rain = 0
KWT1 121134Z 12000KT M04/M10 A3028 RMK A01 T10371098  RH  063%=      5-min Rain = 0
KWT1 121135Z 00000KT M04/M10 A3028 RMK A01 T10391101  RH  062%=      5-min Rain = 0
KWT1 121136Z 00000KT M04/M10 A3028 RMK A01 T10421103  RH  062%=      5-min Rain = 0
KWT1 121137Z 12000KT M05/M10 A3028 RMK A01 T10451104  RH  063%=      5-min Rain = 0
KWT1 121138Z 12000KT M05/M10 A3028 RMK A01 T10451101  RH  065%=      5-min Rain = 0
KWT1 121139Z 12000KT M04/M10 A3028 RMK A01 T10431099  RH  065%=      5-min Rain = 0
KWT1 121140Z 07001KT M04/M10 A3028 RMK A01 T10421097  RH  065%=      5-min Rain = 0
KWT1 121141Z 05001KT M04/M10 A3028 RMK A01 T10411097  RH  065%=      5-min Rain = 0
KWT1 121142Z 05001KT M04/M10 A3028 RMK A01 T10411097  RH  065%=      5-min Rain = 0
KWT1 121143Z 06001KT M04/M10 A3028 RMK A01 T10411098  RH  064%=      5-min Rain = 0
KWT1 121144Z 06002KT M04/M10 A3028 RMK A01 T10411099  RH  064%=      5-min Rain = 0
KWT1 121145Z 06002KT M04/M10 A3028 RMK A01 T10411099  RH  064%=      5-min Rain = 0
KWT1 121146Z 04002KT M04/M10 A3028 RMK A01 T10411099  RH  064%=      5-min Rain = 0
KWT1 121147Z 03002KT M04/M10 A3028 RMK A01 T10411099  RH  064%=      5-min Rain = 0
KWT1 121148Z 03002KT M04/M10 A3028 RMK A01 T10411099  RH  064%=      5-min Rain = 0
KWT1 121149Z 03002KT M04/M10 A3028 RMK A01 T10421099  RH  064%=      5-min Rain = 0
KWT1 121150Z 02002KT M04/M10 A3028 RMK A01 T10431101  RH  064%=      5-min Rain = 0
KWT1 121151Z 02002KT M05/M10 A3028 RMK A01 T10451102  RH  065%=      5-min Rain = 0
KWT1 121152Z 02002KT M05/M10 A3028 RMK A01 T10451101  RH  065%=      5-min Rain = 0
KWT1 121153Z 02002KT M05/M10 A3028 RMK A01 T10451100  RH  065%=      5-min Rain = 0
KWT1 121154Z 01002KT M05/M10 A3028 RMK A01 T10451100  RH  066%=      5-min Rain = 0
KWT1 121155Z 01002KT M05/M10 A3028 RMK A01 T10451100  RH  066%=      5-min Rain = 0
KWT1 121156Z 01002KT M05/M10 A3028 RMK A01 T10451100  RH  066%=      5-min Rain = 0
KWT1 121157Z 01002KT M05/M10 A3028 RMK A01 T10461101  RH  066%=      5-min Rain = 0
KWT1 121158Z 01002KT M05/M10 A3028 RMK A01 T10471101  RH  066%=      5-min Rain = 0
KWT1 121159Z 01002KT M05/M10 A3028 RMK A01 T10481101  RH  066%=      5-min Rain = 0
KWT1 121200Z 01002KT M05/M10 A3028 RMK A01 T10481101  RH  067%=      5-min Rain = 0
KWT1 121201Z 01002KT M05/M10 A3028 RMK A01 T10481100  RH  067%=      5-min Rain = 0
KWT1 121202Z 02002KT M05/M10 A3029 RMK A01 T10481100  RH  067%=      5-min Rain = 0
KWT1 121203Z 03002KT M05/M10 A3029 RMK A01 T10481100  RH  067%=      5-min Rain = 0
KWT1 121204Z 03002KT M05/M10 A3029 RMK A01 T10491099  RH  068%=      5-min Rain = 0
KWT1 121205Z 03002KT M05/M10 A3029 RMK A01 T10481099  RH  068%=      5-min Rain = 0
KWT1 121206Z 03001KT M05/M10 A3028 RMK A01 T10481099  RH  068%=      5-min Rain = 0
KWT1 121207Z 01001KT M05/M10 A3029 RMK A01 T10481098  RH  068%=      5-min Rain = 0
KWT1 121208Z 35001KT M05/M10 A3029 RMK A01 T10481099  RH  068%=      5-min Rain = 0
KWT1 121209Z 35001KT M05/M10 A3029 RMK A01 T10481099  RH  067%=      5-min Rain = 0
KWT1 121210Z 35001KT M05/M10 A3029 RMK A01 T10481098  RH  068%=      5-min Rain = 0
KWT1 121211Z 36001KT M05/M10 A3029 RMK A01 T10481099  RH  067%=      5-min Rain = 0
KWT1 121212Z 01001KT M05/M10 A3029 RMK A01 T10481100  RH  067%=      5-min Rain = 0
KWT1 121213Z 02002KT M05/M10 A3029 RMK A01 T10481099  RH  067%=      5-min Rain = 0
KWT1 121214Z 02002KT M05/M10 A3029 RMK A01 T10481099  RH  068%=      5-min Rain = 0
KWT1 121215Z 00002KT M05/M10 A3029 RMK A01 T10481098  RH  068%=      5-min Rain = 0
KWT1 121216Z 35002KT M05/M10 A3029 RMK A01 T10471098  RH  068%=      5-min Rain = 0
KWT1 121217Z 35002KT M05/M10 A3029 RMK A01 T10471098  RH  067%=      5-min Rain = 0
KWT1 121218Z 35002KT M05/M10 A3029 RMK A01 T10471100  RH  067%=      5-min Rain = 0
KWT1 121219Z 35002KT M05/M10 A3029 RMK A01 T10491102  RH  066%=      5-min Rain = 0
KWT1 121220Z 35002KT M05/M10 A3029 RMK A01 T10511103  RH  067%=      5-min Rain = 0
KWT1 121221Z 35002KT M05/M10 A3029 RMK A01 T10511101  RH  068%=      5-min Rain = 0
KWT1 121222Z 35002KT M05/M10 A3029 RMK A01 T10501099  RH  068%=      5-min Rain = 0
KWT1 121223Z 00001KT M05/M10 A3029 RMK A01 T10491098  RH  069%=      5-min Rain = 0
KWT1 121224Z 02001KT M05/M10 A3029 RMK A01 T10491098  RH  069%=      5-min Rain = 0
KWT1 121225Z 02001KT M05/M10 A3029 RMK A01 T10491098  RH  069%=      5-min Rain = 0
KWT1 121226Z 36001KT M05/M10 A3029 RMK A01 T10491098  RH  069%=      5-min Rain = 0
KWT1 121227Z 34002KT M05/M10 A3029 RMK A01 T10481097  RH  069%=      5-min Rain = 0
KWT1 121228Z 32002KT M05/M10 A3029 RMK A01 T10471097  RH  068%=      5-min Rain = 0
KWT1 121229Z 32002KT M05/M10 A3029 RMK A01 T10481098  RH  068%=      5-min Rain = 0
KWT1 121230Z 33002KT M05/M10 A3029 RMK A01 T10491100  RH  068%=      5-min Rain = 0
KWT1 121231Z 33002KT M05/M10 A3029 RMK A01 T10491099  RH  068%=      5-min Rain = 0
KWT1 121232Z 35002KT M05/M10 A3029 RMK A01 T10491098  RH  068%=      5-min Rain = 0
KWT1 121233Z 01002KT M05/M10 A3029 RMK A01 T10491098  RH  068%=      5-min Rain = 0
KWT1 121234Z 02002KT M05/M10 A3029 RMK A01 T10481097  RH  069%=      5-min Rain = 0
KWT1 121235Z 02002KT M05/M10 A3029 RMK A01 T10481097  RH  068%=      5-min Rain = 0
KWT1 121236Z 02002KT M05/M10 A3029 RMK A01 T10471097  RH  068%=      5-min Rain = 0
KWT1 121237Z 01002KT M05/M10 A3029 RMK A01 T10471097  RH  068%=      5-min Rain = 0
KWT1 121238Z 36002KT M05/M10 A3029 RMK A01 T10471097  RH  068%=      5-min Rain = 0
KWT1 121239Z 35002KT M05/M10 A3029 RMK A01 T10461096  RH  068%=      5-min Rain = 0
KWT1 121240Z 34001KT M05/M10 A3029 RMK A01 T10461097  RH  068%=      5-min Rain = 0
KWT1 121241Z 35001KT M05/M10 A3029 RMK A01 T10461097  RH  067%=      5-min Rain = 0
KWT1 121242Z 36001KT M05/M10 A3029 RMK A01 T10461097  RH  068%=      5-min Rain = 0
KWT1 121243Z 00001KT M05/M10 A3029 RMK A01 T10471098  RH  068%=      5-min Rain = 0
KWT1 121244Z 02001KT M05/M10 A3029 RMK A01 T10471098  RH  068%=      5-min Rain = 0
KWT1 121245Z 03001KT M05/M10 A3029 RMK A01 T10471098  RH  068%=      5-min Rain = 0
KWT1 121246Z 03001KT M05/M10 A3029 RMK A01 T10491101  RH  067%=      5-min Rain = 0
KWT1 121247Z 03001KT M05/M10 A3029 RMK A01 T10501100  RH  068%=      5-min Rain = 0
KWT1 121248Z 03000KT M05/M10 A3029 RMK A01 T10501099  RH  068%=      5-min Rain = 0
KWT1 121249Z 00000KT M05/M10 A3029 RMK A01 T10501099  RH  068%=      5-min Rain = 0
KWT1 121250Z 00000KT M05/M10 A3029 RMK A01 T10491099  RH  068%=      5-min Rain = 0
KWT1 121251Z 00000KT M05/M10 A3029 RMK A01 T10491098  RH  068%=      5-min Rain = 0
KWT1 121252Z 00000KT M05/M10 A3029 RMK A01 T10481098  RH  068%=      5-min Rain = 0
KWT1 121253Z 00000KT M05/M10 A3029 RMK A01 T10481098  RH  068%=      5-min Rain = 0
KWT1 121254Z 03000KT M05/M10 A3029 RMK A01 T10481098  RH  068%=      5-min Rain = 0
KWT1 121255Z 03001KT M05/M10 A3029 RMK A01 T10471098  RH  068%=      5-min Rain = 0
KWT1 121256Z 03001KT M05/M10 A3029 RMK A01 T10471098  RH  068%=      5-min Rain = 0
KWT1 121257Z 02002KT M05/M10 A3029 RMK A01 T10481099  RH  068%=      5-min Rain = 0
KWT1 121258Z 02001KT M05/M10 A3029 RMK A01 T10481098  RH  068%=      5-min Rain = 0
KWT1 121259Z 02001KT M05/M10 A3029 RMK A01 T10471097  RH  068%=      5-min Rain = 0
KWT1 121300Z 02001KT M05/M10 A3029 RMK A01 T10471098  RH  068%=      5-min Rain = 0
KWT1 121301Z 02001KT M05/M10 A3029 RMK A01 T10481099  RH  068%=      5-min Rain = 0
KWT1 121302Z 02001KT M05/M10 A3029 RMK A01 T10491100  RH  068%=      5-min Rain = 0
KWT1 121303Z 04001KT M05/M10 A3029 RMK A01 T10501100  RH  068%=      5-min Rain = 0
KWT1 121304Z 05002KT M05/M10 A3029 RMK A01 T10511100  RH  068%=      5-min Rain = 0
KWT1 121305Z 05002KT M05/M10 A3029 RMK A01 T10501099  RH  069%=      5-min Rain = 0
KWT1 121306Z 05002KT M05/M10 A3029 RMK A01 T10511099  RH  069%=      5-min Rain = 0
KWT1 121307Z 05002KT M05/M10 A3029 RMK A01 T10511099  RH  069%=      5-min Rain = 0
KWT1 121308Z 05002KT M05/M10 A3029 RMK A01 T10511098  RH  069%=      5-min Rain = 0
KWT1 121309Z 05002KT M05/M10 A3029 RMK A01 T10501097  RH  069%=      5-min Rain = 0
KWT1 121310Z 05002KT M05/M10 A3029 RMK A01 T10491097  RH  069%=      5-min Rain = 0
KWT1 121311Z 05001KT M05/M10 A3029 RMK A01 T10481097  RH  069%=      5-min Rain = 0
KWT1 121312Z 05001KT M05/M10 A3029 RMK A01 T10491098  RH  069%=      5-min Rain = 0
KWT1 121313Z 05001KT M05/M10 A3029 RMK A01 T10491099  RH  068%=      5-min Rain = 0
KWT1 121314Z 04001KT M05/M10 A3029 RMK A01 T10501098  RH  069%=      5-min Rain = 0
KWT1 121315Z 04001KT M05/M10 A3029 RMK A01 T10501099  RH  069%=      5-min Rain = 0
KWT1 121316Z 05001KT M05/M10 A3029 RMK A01 T10521100  RH  069%=      5-min Rain = 0
KWT1 121317Z 06001KT M05/M10 A303 RMK A01 T10521100  RH  069%=      5-min Rain = 0
KWT1 121318Z 06002KT M05/M10 A303 RMK A01 T10531099  RH  070%=      5-min Rain = 0
KWT1 121319Z 07002KT M05/M10 A3029 RMK A01 T10531099  RH  070%=      5-min Rain = 0
KWT1 121320Z 07002KT M05/M10 A3029 RMK A01 T10531098  RH  070%=      5-min Rain = 0
KWT1 121321Z 07002KT M05/M10 A3029 RMK A01 T10531098  RH  071%=      5-min Rain = 0
KWT1 121322Z 07002KT M05/M10 A3029 RMK A01 T10531098  RH  071%=      5-min Rain = 0
KWT1 121323Z 07002KT M05/M10 A3029 RMK A01 T10531099  RH  070%=      5-min Rain = 0
KWT1 121324Z 07002KT M05/M10 A3029 RMK A01 T10531099  RH  070%=      5-min Rain = 0
KWT1 121325Z 07001KT M05/M10 A3029 RMK A01 T10541100  RH  070%=      5-min Rain = 0
KWT1 121326Z 07001KT M06/M10 A3029 RMK A01 T10551101  RH  070%=      5-min Rain = 0
KWT1 121327Z 07001KT M06/M10 A3029 RMK A01 T10551101  RH  070%=      5-min Rain = 0
KWT1 121328Z 07001KT M06/M10 A303 RMK A01 T10551101  RH  070%=      5-min Rain = 0
KWT1 121329Z 07001KT M06/M10 A303 RMK A01 T10561101  RH  070%=      5-min Rain = 0
KWT1 121330Z 06001KT M06/M10 A303 RMK A01 T10561101  RH  071%=      5-min Rain = 0
KWT1 121331Z 06001KT M06/M10 A303 RMK A01 T10571100  RH  071%=      5-min Rain = 0
KWT1 121332Z 06000KT M06/M10 A303 RMK A01 T10561099  RH  072%=      5-min Rain = 0
KWT1 121333Z 06000KT M06/M10 A303 RMK A01 T10561099  RH  072%=      5-min Rain = 0
KWT1 121334Z 00000KT M06/M10 A303 RMK A01 T10561099  RH  072%=      5-min Rain = 0
KWT1 121335Z 00000KT M06/M10 A303 RMK A01 T10561099  RH  072%=      5-min Rain = 0
KWT1 121336Z 31000KT M06/M10 A303 RMK A01 T10571100  RH  071%=      5-min Rain = 0
KWT1 121337Z 32001KT M06/M10 A303 RMK A01 T10581102  RH  071%=      5-min Rain = 0
KWT1 121338Z 33001KT M06/M10 A303 RMK A01 T10601103  RH  071%=      5-min Rain = 0
KWT1 121339Z 35001KT M06/M10 A303 RMK A01 T10601103  RH  072%=      5-min Rain = 0
KWT1 121340Z 35001KT M06/M10 A303 RMK A01 T10611102  RH  072%=      5-min Rain = 0
KWT1 121341Z 35001KT M06/M10 A303 RMK A01 T10611101  RH  073%=      5-min Rain = 0
KWT1 121342Z 35001KT M06/M10 A303 RMK A01 T10601100  RH  074%=      5-min Rain = 0
KWT1 121343Z 35001KT M06/M10 A303 RMK A01 T10581098  RH  074%=      5-min Rain = 0
KWT1 121344Z 34001KT M06/M10 A303 RMK A01 T10571096  RH  074%=      5-min Rain = 0
KWT1 121345Z 33001KT M06/M10 A303 RMK A01 T10561096  RH  073%=      5-min Rain = 0
KWT1 121346Z 32002KT M06/M10 A303 RMK A01 T10551096  RH  073%=      5-min Rain = 0
KWT1 121347Z 32001KT M05/M10 A303 RMK A01 T10541096  RH  072%=      5-min Rain = 0
KWT1 121348Z 32001KT M05/M10 A303 RMK A01 T10541097  RH  072%=      5-min Rain = 0
KWT1 121349Z 32001KT M05/M10 A303 RMK A01 T10541097  RH  071%=      5-min Rain = 0
KWT1 121350Z 32000KT M05/M10 A303 RMK A01 T10541098  RH  071%=      5-min Rain = 0
KWT1 121351Z 00000KT M05/M10 A303 RMK A01 T10531098  RH  071%=      5-min Rain = 0
KWT1 121352Z 00000KT M05/M10 A303 RMK A01 T10521097  RH  071%=      5-min Rain = 0
KWT1 121353Z 32000KT M05/M10 A303 RMK A01 T10511098  RH  070%=      5-min Rain = 0
KWT1 121354Z 31001KT M05/M10 A303 RMK A01 T10511098  RH  069%=      5-min Rain = 0
KWT1 121355Z 30002KT M05/M10 A303 RMK A01 T10511099  RH  069%=      5-min Rain = 0
KWT1 121356Z 29002KT M05/M10 A303 RMK A01 T10521100  RH  069%=      5-min Rain = 0
KWT1 121357Z 29002KT M05/M10 A303 RMK A01 T10531101  RH  069%=      5-min Rain = 0
KWT1 121358Z 29001KT M05/M10 A303 RMK A01 T10541102  RH  069%=      5-min Rain = 0
KWT1 121359Z 29001KT M06/M10 A303 RMK A01 T10551102  RH  070%=      5-min Rain = 0
KWT1 121400Z 29001KT M06/M10 A3031 RMK A01 T10561101  RH  070%=      5-min Rain = 0
KWT1 121401Z 29001KT M06/M10 A3031 RMK A01 T10551100  RH  071%=      5-min Rain = 0
KWT1 121402Z 28002KT M05/M10 A3031 RMK A01 T10541099  RH  071%=      5-min Rain = 0
KWT1 121403Z 27002KT M05/M10 A3031 RMK A01 T10541099  RH  071%=      5-min Rain = 0
KWT1 121404Z 27002KT M05/M10 A3031 RMK A01 T10531098  RH  071%=      5-min Rain = 0
KWT1 121405Z 27002KT M05/M10 A3031 RMK A01 T10511097  RH  070%=      5-min Rain = 0
KWT1 121406Z 27002KT M05/M10 A3031 RMK A01 T10511097  RH  070%=      5-min Rain = 0
KWT1 121407Z 27001KT M05/M10 A3031 RMK A01 T10501096  RH  070%=      5-min Rain = 0
KWT1 121408Z 27001KT M05/M10 A3031 RMK A01 T10491096  RH  070%=      5-min Rain = 0
KWT1 121409Z 27000KT M05/M10 A3031 RMK A01 T10481096  RH  069%=      5-min Rain = 0
KWT1 121410Z 00000KT M05/M10 A3031 RMK A01 T10471096  RH  069%=      5-min Rain = 0
KWT1 121411Z 00000KT M05/M10 A3031 RMK A01 T10461095  RH  068%=      5-min Rain = 0
KWT1 121412Z 00000KT M05/M10 A3031 RMK A01 T10451096  RH  068%=      5-min Rain = 0
KWT1 121413Z 00000KT M04/M10 A3031 RMK A01 T10441095  RH  067%=      5-min Rain = 0
KWT1 121414Z 00000KT M04/M10 A3031 RMK A01 T10431095  RH  067%=      5-min Rain = 0
KWT1 121415Z 00000KT M04/M10 A3031 RMK A01 T10421096  RH  066%=      5-min Rain = 0
KWT1 121416Z 00000KT M04/M10 A3031 RMK A01 T10411095  RH  066%=      5-min Rain = 0
KWT1 121417Z 00000KT M04/M10 A3031 RMK A01 T10401095  RH  065%=      5-min Rain = 0
KWT1 121418Z 00000KT M04/M10 A3031 RMK A01 T10401096  RH  065%=      5-min Rain = 0
KWT1 121419Z 00000KT M04/M10 A3031 RMK A01 T10401096  RH  065%=      5-min Rain = 0
KWT1 121420Z 00000KT M04/M10 A3031 RMK A01 T10391096  RH  065%=      5-min Rain = 0
KWT1 121421Z 27000KT M04/M10 A3031 RMK A01 T10391095  RH  065%=      5-min Rain = 0
KWT1 121422Z 27000KT M04/M10 A3031 RMK A01 T10391095  RH  065%=      5-min Rain = 0
KWT1 121423Z 00000KT M04/M10 A3031 RMK A01 T10381096  RH  064%=      5-min Rain = 0
KWT1 121424Z 00000KT M04/M10 A3031 RMK A01 T10381096  RH  064%=      5-min Rain = 0
KWT1 121425Z 27000KT M04/M10 A3031 RMK A01 T10381096  RH  064%=      5-min Rain = 0
KWT1 121426Z 27000KT M04/M10 A3031 RMK A01 T10371095  RH  064%=      5-min Rain = 0
KWT1 121427Z 27000KT M04/M09 A3031 RMK A01 T10351094  RH  064%=      5-min Rain = 0
KWT1 121428Z 27000KT M03/M09 A3031 RMK A01 T10321093  RH  063%=      5-min Rain = 0
KWT1 121429Z 27001KT M03/M09 A3031 RMK A01 T10281090  RH  062%=      5-min Rain = 0
KWT1 121430Z 27001KT M02/M09 A3031 RMK A01 T10241089  RH  061%=      5-min Rain = 0
KWT1 121431Z 27000KT M02/M09 A3031 RMK A01 T10191090  RH  058%=      5-min Rain = 0
KWT1 121432Z 27000KT M02/M09 A3031 RMK A01 T10151091  RH  056%=      5-min Rain = 0
KWT1 121433Z 01001KT M01/M09 A3031 RMK A01 T10131093  RH  054%=      5-min Rain = 0
KWT1 121434Z 06001KT M01/M09 A3031 RMK A01 T10131094  RH  054%=      5-min Rain = 0
KWT1 121435Z 03001KT M01/M09 A3031 RMK A01 T10141094  RH  055%=      5-min Rain = 0
KWT1 121436Z 01001KT M02/M09 A3031 RMK A01 T10171093  RH  056%=      5-min Rain = 0
KWT1 121437Z 00001KT M02/M09 A3031 RMK A01 T10201093  RH  057%=      5-min Rain = 0
KWT1 121438Z 00001KT M02/M09 A3031 RMK A01 T10221093  RH  058%=      5-min Rain = 0
KWT1 121439Z 02001KT M02/M09 A3031 RMK A01 T10231093  RH  059%=      5-min Rain = 0
KWT1 121440Z 03001KT M02/M09 A3031 RMK A01 T10231092  RH  059%=      5-min Rain = 0
KWT1 121441Z 04001KT M02/M09 A3031 RMK A01 T10231092  RH  059%=      5-min Rain = 0
KWT1 121442Z 05002KT M02/M09 A3031 RMK A01 T10231093  RH  059%=      5-min Rain = 0
KWT1 121443Z 04001KT M02/M09 A3031 RMK A01 T10231092  RH  059%=      5-min Rain = 0
KWT1 121444Z 05001KT M02/M09 A3031 RMK A01 T10231092  RH  059%=      5-min Rain = 0
KWT1 121445Z 06000KT M02/M09 A3031 RMK A01 T10231093  RH  059%=      5-min Rain = 0
KWT1 121446Z 00000KT M02/M09 A3032 RMK A01 T10231093  RH  059%=      5-min Rain = 0
KWT1 121447Z 00000KT M02/M09 A3032 RMK A01 T10231094  RH  058%=      5-min Rain = 0
KWT1 121448Z 00000KT M02/M10 A3032 RMK A01 T10221095  RH  057%=      5-min Rain = 0
KWT1 121449Z 08000KT M02/M10 A3032 RMK A01 T10211095  RH  057%=      5-min Rain = 0
KWT1 121450Z 07001KT M02/M10 A3032 RMK A01 T10201095  RH  057%=      5-min Rain = 0
KWT1 121451Z 05001KT M02/M10 A3032 RMK A01 T10201095  RH  057%=      5-min Rain = 0
KWT1 121452Z 05002KT M02/M09 A3032 RMK A01 T10201094  RH  057%=      5-min Rain = 0
KWT1 121453Z 05002KT M02/M09 A3032 RMK A01 T10201093  RH  057%=      5-min Rain = 0
KWT1 121454Z 06001KT M02/M09 A3032 RMK A01 T10211091  RH  059%=      5-min Rain = 0
KWT1 121455Z 05002KT M02/M09 A3032 RMK A01 T10201091  RH  058%=      5-min Rain = 0
KWT1 121456Z 06002KT M02/M09 A3032 RMK A01 T10201092  RH  058%=      5-min Rain = 0
KWT1 121457Z 06002KT M02/M09 A3032 RMK A01 T10211092  RH  058%=      5-min Rain = 0
KWT1 121458Z 07002KT M02/M09 A3032 RMK A01 T10211092  RH  059%=      5-min Rain = 0
KWT1 121459Z 07001KT M02/M09 A3032 RMK A01 T10211091  RH  059%=      5-min Rain = 0
KWT1 121500Z 07001KT M02/M09 A3032 RMK A01 T10211090  RH  059%=      5-min Rain = 0
KWT1 121501Z 07002KT M02/M09 A3032 RMK A01 T10201091  RH  058%=      5-min Rain = 0
KWT1 121502Z 09001KT M02/M09 A3032 RMK A01 T10201092  RH  058%=      5-min Rain = 0
KWT1 121503Z 09001KT M02/M09 A3032 RMK A01 T10201092  RH  058%=      5-min Rain = 0
KWT1 121504Z 09000KT M02/M09 A3032 RMK A01 T10191091  RH  058%=      5-min Rain = 0
KWT1 121505Z 10001KT M02/M09 A3032 RMK A01 T10181089  RH  058%=      5-min Rain = 0
KWT1 121506Z 11002KT M02/M09 A3032 RMK A01 T10161088  RH  058%=      5-min Rain = 0
KWT1 121507Z 10002KT M02/M09 A3032 RMK A01 T10151088  RH  057%=      5-min Rain = 0
KWT1 121508Z 09001KT M01/M09 A3032 RMK A01 T10131087  RH  057%=      5-min Rain = 0
KWT1 121509Z 09002KT M01/M09 A3032 RMK A01 T10121087  RH  057%=      5-min Rain = 0
KWT1 121510Z 10001KT M01/M09 A3032 RMK A01 T10121087  RH  057%=      5-min Rain = 0
KWT1 121511Z 15002KT M01/M09 A3032 RMK A01 T10111086  RH  057%=      5-min Rain = 0
KWT1 121512Z 13002KT M01/M09 A3032 RMK A01 T10091089  RH  054%=      5-min Rain = 0
KWT1 121513Z 13002KT M01/M09 A3032 RMK A01 T10061091  RH  053%=      5-min Rain = 0
KWT1 121514Z 13003KT M01/M09 A3032 RMK A01 T10051091  RH  052%=      5-min Rain = 0
KWT1 121515Z 13003KT M00/M09 A3031 RMK A01 T10041092  RH  051%=      5-min Rain = 0
KWT1 121516Z 15004KT M00/M09 A3031 RMK A01 T10031091  RH  051%=      5-min Rain = 0
KWT1 121517Z 15003KT M00/M09 A3031 RMK A01 T10021089  RH  052%=      5-min Rain = 0
KWT1 121518Z 12004KT M00/M09 A3031 RMK A01 T10021089  RH  052%=      5-min Rain = 0
KWT1 121519Z 13004KT M00/M09 A3031 RMK A01 T10021088  RH  052%=      5-min Rain = 0
KWT1 121520Z 12003KT M00/M09 A3031 RMK A01 T10011087  RH  052%=      5-min Rain = 0
KWT1 121521Z 12003KT M00/M09 A3031 RMK A01 T10011087  RH  052%=      5-min Rain = 0
KWT1 121522Z 13003KT 00/09 A3031 RMK A01 T00-00-87  RH  052%=      5-min Rain = 0
KWT1 121523Z 13005KT 00/M09 A3031 RMK A01 T00011087  RH  051%=      5-min Rain = 0
KWT1 121524Z 15004KT 00/M09 A3031 RMK A01 T00021090  RH  050%=      5-min Rain = 0
KWT1 121525Z 14004KT 00/M09 A3031 RMK A01 T00021091  RH  050%=      5-min Rain = 0
KWT1 121526Z 15004KT 00/M09 A3031 RMK A01 T00021091  RH  050%=      5-min Rain = 0
KWT1 121527Z 15004KT 00/M09 A3031 RMK A01 T00011092  RH  050%=      5-min Rain = 0
KWT1 121528Z 15004KT M00/M09 A3031 RMK A01 T10011092  RH  050%=      5-min Rain = 0
KWT1 121529Z 15004KT M00/M09 A3031 RMK A01 T10011092  RH  050%=      5-min Rain = 0
KWT1 121530Z 15004KT M00/M09 A3031 RMK A01 T10011092  RH  050%=      5-min Rain = 0
KWT1 121531Z 14004KT M00/M09 A3031 RMK A01 T10011093  RH  050%=      5-min Rain = 0
KWT1 121532Z 14003KT M00/M09 A3031 RMK A01 T10011092  RH  050%=      5-min Rain = 0
KWT1 121533Z 13005KT 00/09 A3031 RMK A01 T00-00-91  RH  050%=      5-min Rain = 0
KWT1 121534Z 12004KT M00/M09 A3031 RMK A01 T10011092  RH  050%=      5-min Rain = 0
KWT1 121535Z 13004KT M00/M09 A3031 RMK A01 T10011092  RH  050%=      5-min Rain = 0
KWT1 121536Z 13004KT M00/M09 A3031 RMK A01 T10011091  RH  051%=      5-min Rain = 0
KWT1 121537Z 14005KT 00/09 A3031 RMK A01 T00-00-90  RH  051%=      5-min Rain = 0
KWT1 121538Z 13005KT 00/09 A3031 RMK A01 T00000-91  RH  050%=      5-min Rain = 0
KWT1 121539Z 13004KT 00/09 A3031 RMK A01 T00000-91  RH  050%=      5-min Rain = 0
KWT1 121540Z 13005KT 00/M09 A3031 RMK A01 T00011090  RH  050%=      5-min Rain = 0
KWT1 121541Z 14005KT 00/M09 A3031 RMK A01 T00011091  RH  050%=      5-min Rain = 0
KWT1 121542Z 14004KT 00/M09 A3031 RMK A01 T00011091  RH  050%=      5-min Rain = 0
KWT1 121543Z 13005KT 00/M09 A3031 RMK A01 T00011091  RH  050%=      5-min Rain = 0
KWT1 121544Z 14005KT 00/M09 A3031 RMK A01 T00011091  RH  050%=      5-min Rain = 0
KWT1 121545Z 14005KT 00/M09 A3031 RMK A01 T00011091  RH  050%=      5-min Rain = 0
KWT1 121546Z 14005KT 00/M09 A3031 RMK A01 T00021091  RH  050%=      5-min Rain = 0
KWT1 121547Z 13006KT 00/M09 A3031 RMK A01 T00031091  RH  049%=      5-min Rain = 0
KWT1 121548Z 13005KT 00/M09 A3031 RMK A01 T00041092  RH  049%=      5-min Rain = 0
KWT1 121549Z 13005KT 00/M09 A3031 RMK A01 T00041092  RH  049%=      5-min Rain = 0
KWT1 121550Z 14004KT 00/M09 A3031 RMK A01 T00041092  RH  049%=      5-min Rain = 0
KWT1 121551Z 14005KT 01/M09 A3031 RMK A01 T00051091  RH  049%=      5-min Rain = 0
KWT1 121552Z 16005KT 01/M09 A3031 RMK A01 T00051092  RH  048%=      5-min Rain = 0
KWT1 121553Z 17004KT 01/M09 A3031 RMK A01 T00051092  RH  048%=      5-min Rain = 0
KWT1 121554Z 16005KT 01/M09 A3031 RMK A01 T00051092  RH  048%=      5-min Rain = 0
KWT1 121555Z 15005KT 00/M09 A3031 RMK A01 T00041093  RH  048%=      5-min Rain = 0
KWT1 121556Z 16004KT 01/M09 A3031 RMK A01 T00051092  RH  048%=      5-min Rain = 0
KWT1 121557Z 17005KT 01/M09 A3031 RMK A01 T00061091  RH  048%=      5-min Rain = 0
KWT1 121558Z 18004KT 01/M09 A3031 RMK A01 T00051092  RH  048%=      5-min Rain = 0
KWT1 121559Z 15005KT 00/M09 A3031 RMK A01 T00041092  RH  048%=      5-min Rain = 0
KWT1 121600Z 15004KT 01/M09 A3031 RMK A01 T00051091  RH  049%=      5-min Rain = 0
KWT1 121601Z 17005KT 01/M09 A3031 RMK A01 T00081089  RH  048%=      5-min Rain = 0
KWT1 121602Z 17004KT 01/M09 A3031 RMK A01 T00071091  RH  048%=      5-min Rain = 0
KWT1 121603Z 16006KT 01/M09 A3031 RMK A01 T00081089  RH  048%=      5-min Rain = 0
KWT1 121604Z 16004KT 01/M09 A3031 RMK A01 T00091089  RH  048%=      5-min Rain = 0
KWT1 121605Z 15005KT 01/M09 A3031 RMK A01 T00091089  RH  048%=      5-min Rain = 0
KWT1 121606Z 16005KT 01/M09 A3031 RMK A01 T00101089  RH  048%=      5-min Rain = 0
KWT1 121607Z 16003KT 01/M09 A3031 RMK A01 T00111088  RH  048%=      5-min Rain = 0
KWT1 121608Z 17003KT 01/M09 A3032 RMK A01 T00111088  RH  048%=      5-min Rain = 0
KWT1 121609Z 17004KT 01/M09 A3032 RMK A01 T00111087  RH  048%=      5-min Rain = 0
KWT1 121610Z 18004KT 01/M09 A3032 RMK A01 T00111087  RH  048%=      5-min Rain = 0
KWT1 121611Z 17004KT 01/M09 A3032 RMK A01 T00111089  RH  047%=      5-min Rain = 0
KWT1 121612Z 15003KT 01/M09 A3032 RMK A01 T00111088  RH  048%=      5-min Rain = 0
KWT1 121613Z 18005KT 01/M09 A3031 RMK A01 T00131086  RH  048%=      5-min Rain = 0
KWT1 121614Z 18004KT 01/M09 A3031 RMK A01 T00131086  RH  048%=      5-min Rain = 0
KWT1 121615Z 19003KT 01/M09 A3032 RMK A01 T00121087  RH  048%=      5-min Rain = 0
KWT1 121616Z 18002KT 01/M09 A3032 RMK A01 T00111087  RH  048%=      5-min Rain = 0
KWT1 121617Z 16002KT 01/M09 A3032 RMK A01 T00121086  RH  048%=      5-min Rain = 0
KWT1 121618Z 13004KT 01/M09 A3032 RMK A01 T00141087  RH  047%=      5-min Rain = 0
KWT1 121619Z 13005KT 02/M09 A3032 RMK A01 T00171089  RH  045%=      5-min Rain = 0
KWT1 121620Z 12004KT 02/M09 A3032 RMK A01 T00181090  RH  045%=      5-min Rain = 0
KWT1 121621Z 13004KT 02/M09 A3032 RMK A01 T00181091  RH  044%=      5-min Rain = 0
KWT1 121622Z 14005KT 02/M09 A3032 RMK A01 T00181091  RH  044%=      5-min Rain = 0
KWT1 121623Z 15003KT 02/M09 A3032 RMK A01 T00181090  RH  045%=      5-min Rain = 0
KWT1 121624Z 15005KT 02/M09 A3032 RMK A01 T00201086  RH  045%=      5-min Rain = 0
KWT1 121625Z 15005KT 02/M09 A3032 RMK A01 T00231086  RH  044%=      5-min Rain = 0
KWT1 121626Z 13004KT 02/M09 A3032 RMK A01 T00241088  RH  043%=      5-min Rain = 0
KWT1 121627Z 16004KT 02/M09 A3032 RMK A01 T00241089  RH  043%=      5-min Rain = 0
KWT1 121628Z 17004KT 02/M09 A3032 RMK A01 T00231091  RH  043%=      5-min Rain = 0
KWT1 121629Z 15003KT 02/M09 A3032 RMK A01 T00221092  RH  043%=      5-min Rain = 0
KWT1 121630Z 17005KT 02/M09 A3032 RMK A01 T00221091  RH  043%=      5-min Rain = 0
KWT1 121631Z 16004KT 02/M09 A3032 RMK A01 T00221094  RH  042%=      5-min Rain = 0
KWT1 121632Z 16005KT 02/M09 A3032 RMK A01 T00201094  RH  042%=      5-min Rain = 0
KWT1 121633Z 16003KT 02/M09 A3032 RMK A01 T00201093  RH  043%=      5-min Rain = 0
KWT1 121634Z 14002KT 02/M09 A3031 RMK A01 T00201092  RH  043%=      5-min Rain = 0
KWT1 121635Z 16004KT 02/M09 A3031 RMK A01 T00221090  RH  043%=      5-min Rain = 0
KWT1 121636Z 15005KT 02/M09 A3031 RMK A01 T00231091  RH  043%=      5-min Rain = 0
KWT1 121637Z 14005KT 02/M09 A3031 RMK A01 T00221092  RH  043%=      5-min Rain = 0
KWT1 121638Z 12003KT 02/M09 A3031 RMK A01 T00241089  RH  043%=      5-min Rain = 0
KWT1 121639Z 15004KT 03/M09 A3032 RMK A01 T00261088  RH  043%=      5-min Rain = 0
KWT1 121640Z 16006KT 03/M09 A3032 RMK A01 T00281088  RH  042%=      5-min Rain = 0
KWT1 121641Z 16005KT 03/M09 A3032 RMK A01 T00251091  RH  042%=      5-min Rain = 0
KWT1 121642Z 16004KT 02/M09 A3032 RMK A01 T00241089  RH  043%=      5-min Rain = 0
KWT1 121643Z 16002KT 02/M09 A3032 RMK A01 T00241090  RH  043%=      5-min Rain = 0
KWT1 121644Z 19002KT 02/M09 A3032 RMK A01 T00231090  RH  043%=      5-min Rain = 0
KWT1 121645Z 16004KT 02/M09 A3032 RMK A01 T00231089  RH  043%=      5-min Rain = 0
KWT1 121646Z 17005KT 02/M09 A3031 RMK A01 T00241088  RH  043%=      5-min Rain = 0
KWT1 121647Z 16004KT 03/M09 A3031 RMK A01 T00251088  RH  043%=      5-min Rain = 0
KWT1 121648Z 14006KT 03/M09 A3031 RMK A01 T00251090  RH  042%=      5-min Rain = 0
KWT1 121649Z 13005KT 03/M09 A3031 RMK A01 T00261089  RH  042%=      5-min Rain = 0
KWT1 121650Z 14004KT 03/M09 A3031 RMK A01 T00271090  RH  042%=      5-min Rain = 0
KWT1 121651Z 13004KT 03/M09 A3031 RMK A01 T00281088  RH  042%=      5-min Rain = 0
KWT1 121652Z 12005KT 03/M09 A3031 RMK A01 T00301088  RH  042%=      5-min Rain = 0
KWT1 121653Z 13005KT 03/M09 A3031 RMK A01 T00311088  RH  041%=      5-min Rain = 0
KWT1 121654Z 13005KT 03/M09 A3031 RMK A01 T00311089  RH  041%=      5-min Rain = 0
KWT1 121655Z 15004KT 03/M09 A3031 RMK A01 T00301089  RH  041%=      5-min Rain = 0
KWT1 121656Z 16004KT 03/M09 A3031 RMK A01 T00291087  RH  042%=      5-min Rain = 0
KWT1 121657Z 18006KT 03/M09 A303 RMK A01 T00301086  RH  042%=      5-min Rain = 0
KWT1 121658Z 18005KT 03/M09 A303 RMK A01 T00291088  RH  042%=      5-min Rain = 0
KWT1 121659Z 15005KT 03/M09 A303 RMK A01 T00321085  RH  042%=      5-min Rain = 0
KWT1 121700Z 14006KT 04/M09 A303 RMK A01 T00351085  RH  041%=      5-min Rain = 0
KWT1 121701Z 14007KT 04/M09 A303 RMK A01 T00361087  RH  040%=      5-min Rain = 0
KWT1 121702Z 14006KT 04/M09 A303 RMK A01 T00351089  RH  040%=      5-min Rain = 0
KWT1 121703Z 14005KT 03/M09 A303 RMK A01 T00341089  RH  040%=      5-min Rain = 0
KWT1 121704Z 15006KT 03/M09 A303 RMK A01 T00341088  RH  040%=      5-min Rain = 0
KWT1 121705Z 13006KT 04/M09 A303 RMK A01 T00361090  RH  039%=      5-min Rain = 0
KWT1 121706Z 13006KT 04/M09 A303 RMK A01 T00371091  RH  039%=      5-min Rain = 0
KWT1 121707Z 16007KT 04/M09 A303 RMK A01 T00401089  RH  038%=      5-min Rain = 0
KWT1 121708Z 16005KT 04/M09 A303 RMK A01 T00391092  RH  038%=      5-min Rain = 0
KWT1 121709Z 14006KT 04/M09 A303 RMK A01 T00371093  RH  038%=      5-min Rain = 0
KWT1 121710Z 15005KT 04/M09 A303 RMK A01 T00401089  RH  038%=      5-min Rain = 0
KWT1 121711Z 15005KT 04/M09 A303 RMK A01 T00441087  RH  038%=      5-min Rain = 0
KWT1 121712Z 15006KT 05/M09 A303 RMK A01 T00451087  RH  038%=      5-min Rain = 0
KWT1 121713Z 15006KT 05/M09 A3029 RMK A01 T00451089  RH  037%=      5-min Rain = 0
KWT1 121714Z 16006KT 04/M09 A3029 RMK A01 T00441091  RH  037%=      5-min Rain = 0
KWT1 121715Z 15005KT 04/M09 A3029 RMK A01 T00421091  RH  037%=      5-min Rain = 0
KWT1 121716Z 14004KT 04/M09 A3029 RMK A01 T00421090  RH  038%=      5-min Rain = 0
KWT1 121717Z 14005KT 04/M09 A3029 RMK A01 T00441087  RH  038%=      5-min Rain = 0
KWT1 121718Z 14004KT 05/M09 A3029 RMK A01 T00451087  RH  038%=      5-min Rain = 0
KWT1 121719Z 15005KT 05/M09 A3029 RMK A01 T00471087  RH  037%=      5-min Rain = 0
KWT1 121720Z 17006KT 05/M09 A3029 RMK A01 T00471089  RH  037%=      5-min Rain = 0
KWT1 121721Z 15007KT 05/M09 A3029 RMK A01 T00471090  RH  036%=      5-min Rain = 0
KWT1 121722Z 14007KT 05/M09 A3029 RMK A01 T00481092  RH  036%=      5-min Rain = 0
KWT1 121723Z 14006KT 05/M09 A3029 RMK A01 T00471092  RH  036%=      5-min Rain = 0
KWT1 121724Z 14005KT 05/M09 A3029 RMK A01 T00461092  RH  036%=      5-min Rain = 0
KWT1 121725Z 13005KT 05/M09 A3029 RMK A01 T00451092  RH  036%=      5-min Rain = 0
KWT1 121726Z 13004KT 05/M09 A3029 RMK A01 T00451090  RH  037%=      5-min Rain = 0
KWT1 121727Z 10003KT 05/M09 A3029 RMK A01 T00461088  RH  037%=      5-min Rain = 0
KWT1 121728Z 15003KT 05/M09 A3028 RMK A01 T00471089  RH  037%=      5-min Rain = 0
KWT1 121729Z 15005KT 05/M09 A3028 RMK A01 T00481088  RH  037%=      5-min Rain = 0
KWT1 121730Z 15004KT 05/M09 A3028 RMK A01 T00511089  RH  036%=      5-min Rain = 0
KWT1 121731Z 14004KT 05/M09 A3028 RMK A01 T00511090  RH  035%=      5-min Rain = 0
KWT1 121732Z 14005KT 05/M09 A3028 RMK A01 T00511089  RH  035%=      5-min Rain = 0
KWT1 121733Z 13005KT 05/M09 A3028 RMK A01 T00531088  RH  035%=      5-min Rain = 0
KWT1 121734Z 15007KT 06/M09 A3028 RMK A01 T00561089  RH  034%=      5-min Rain = 0
KWT1 121735Z 15006KT 06/M09 A3028 RMK A01 T00561091  RH  034%=      5-min Rain = 0
KWT1 121736Z 14004KT 05/M09 A3028 RMK A01 T00521093  RH  034%=      5-min Rain = 0
KWT1 121737Z 13004KT 05/M09 A3028 RMK A01 T00521091  RH  035%=      5-min Rain = 0
KWT1 121738Z 15006KT 05/M09 A3028 RMK A01 T00521092  RH  034%=      5-min Rain = 0
KWT1 121739Z 16005KT 05/M09 A3028 RMK A01 T00521092  RH  035%=      5-min Rain = 0
KWT1 121740Z 16006KT 05/M09 A3028 RMK A01 T00521092  RH  035%=      5-min Rain = 0
KWT1 121741Z 16007KT 05/M09 A3028 RMK A01 T00531091  RH  035%=      5-min Rain = 0
KWT1 121742Z 15008KT 05/M09 A3027 RMK A01 T00541092  RH  034%=      5-min Rain = 0
KWT1 121743Z 16007KT 05/M09 A3027 RMK A01 T00541092  RH  034%=      5-min Rain = 0
KWT1 121744Z 18004KT 05/M09 A3027 RMK A01 T00541092  RH  034%=      5-min Rain = 0
KWT1 121745Z 15006KT 05/M09 A3027 RMK A01 T00541091  RH  034%=      5-min Rain = 0
KWT1 121746Z 13005KT 05/M09 A3027 RMK A01 T00541092  RH  034%=      5-min Rain = 0
KWT1 121747Z 16006KT 05/M09 A3027 RMK A01 T00531092  RH  034%=      5-min Rain = 0
KWT1 121748Z 19005KT 06/M09 A3027 RMK A01 T00561092  RH  034%=      5-min Rain = 0
KWT1 121749Z 17004KT 06/M09 A3027 RMK A01 T00551094  RH  033%=      5-min Rain = 0
KWT1 121750Z 12006KT 05/M09 A3027 RMK A01 T00541093  RH  034%=      5-min Rain = 0
KWT1 121751Z 13005KT 06/M09 A3027 RMK A01 T00561092  RH  033%=      5-min Rain = 0
KWT1 121752Z 14003KT 06/M09 A3027 RMK A01 T00571093  RH  033%=      5-min Rain = 0
KWT1 121753Z 14004G9KT 06/M09 A3027 RMK A01 T00571093  RH  033%=      5-min Rain = 0
KWT1 121754Z 14008KT 06/M09 A3027 RMK A01 T00591092  RH  033%=      5-min Rain = 0
KWT1 121755Z 14007KT 06/M09 A3027 RMK A01 T00601093  RH  032%=      5-min Rain = 0
KWT1 121756Z 14006KT 06/M09 A3027 RMK A01 T00631090  RH  032%=      5-min Rain = 0
KWT1 121757Z 14005KT 06/M09 A3027 RMK A01 T00641091  RH  032%=      5-min Rain = 0
KWT1 121758Z 15004KT 06/M09 A3027 RMK A01 T00641093  RH  032%=      5-min Rain = 0
KWT1 121759Z 14007KT 06/M09 A3027 RMK A01 T00631093  RH  032%=      5-min Rain = 0
KWT1 121800Z 15008KT 06/M09 A3027 RMK A01 T00641094  RH  031%=      5-min Rain = 0
KWT1 121801Z 16006KT 06/M10 A3027 RMK A01 T00621097  RH  031%=      5-min Rain = 0
KWT1 121802Z 16004KT 06/M10 A3027 RMK A01 T00601098  RH  031%=      5-min Rain = 0
KWT1 121803Z 13004KT 06/M10 A3027 RMK A01 T00581096  RH  032%=      5-min Rain = 0
KWT1 121804Z 13004KT 06/M10 A3026 RMK A01 T00591096  RH  032%=      5-min Rain = 0
KWT1 121805Z 14006KT 06/M09 A3026 RMK A01 T00621094  RH  032%=      5-min Rain = 0
KWT1 121806Z 15009KT 07/M09 A3026 RMK A01 T00651093  RH  031%=      5-min Rain = 0
KWT1 121807Z 16009KT 07/M09 A3026 RMK A01 T00651094  RH  031%=      5-min Rain = 0
KWT1 121808Z 17006KT 06/M10 A3026 RMK A01 T00621096  RH  031%=      5-min Rain = 0
KWT1 121809Z 18003KT 06/M10 A3026 RMK A01 T00581099  RH  031%=      5-min Rain = 0
KWT1 121810Z 16004G9KT 06/M10 A3026 RMK A01 T00561099  RH  032%=      5-min Rain = 0
KWT1 121811Z 14008KT 06/M10 A3026 RMK A01 T00561097  RH  032%=      5-min Rain = 0
KWT1 121812Z 14007KT 06/M10 A3026 RMK A01 T00581098  RH  031%=      5-min Rain = 0
KWT1 121813Z 14007KT 06/M10 A3026 RMK A01 T00611096  RH  031%=      5-min Rain = 0
KWT1 121814Z 14005KT 06/M10 A3026 RMK A01 T00621097  RH  031%=      5-min Rain = 0
KWT1 121815Z 16008KT 06/M10 A3026 RMK A01 T00631096  RH  031%=      5-min Rain = 0
KWT1 121816Z 15008KT 06/M10 A3026 RMK A01 T00641097  RH  031%=      5-min Rain = 0
KWT1 121817Z 13006KT 06/M10 A3026 RMK A01 T00641098  RH  030%=      5-min Rain = 0
KWT1 121818Z 13005KT 06/M10 A3026 RMK A01 T00641098  RH  030%=      5-min Rain = 0
KWT1 121819Z 14007KT 07/M10 A3025 RMK A01 T00651096  RH  030%=      5-min Rain = 0
KWT1 121820Z 14007KT 07/M10 A3025 RMK A01 T00671099  RH  029%=      5-min Rain = 0
KWT1 121821Z 15005KT 07/M10 A3025 RMK A01 T00681101  RH  029%=      5-min Rain = 0
KWT1 121822Z 13005KT 07/M10 A3025 RMK A01 T00681100  RH  029%=      5-min Rain = 0
KWT1 121823Z 15006KT 07/M10 A3025 RMK A01 T00681100  RH  029%=      5-min Rain = 0
KWT1 121824Z 15005KT 07/M10 A3025 RMK A01 T00681098  RH  030%=      5-min Rain = 0
KWT1 121825Z 15008KT 07/M10 A3025 RMK A01 T00711096  RH  029%=      5-min Rain = 0
KWT1 121826Z 15007KT 07/M10 A3025 RMK A01 T00701100  RH  029%=      5-min Rain = 0
KWT1 121827Z 15007KT 07/M10 A3024 RMK A01 T00681099  RH  029%=      5-min Rain = 0
KWT1 121828Z 15009KT 07/M10 A3024 RMK A01 T00681103  RH  028%=      5-min Rain = 0
KWT1 121829Z 15011KT 07/M11 A3024 RMK A01 T00681106  RH  028%=      5-min Rain = 0
KWT1 121830Z 16009KT 07/M11 A3024 RMK A01 T00691108  RH  027%=      5-min Rain = 0
KWT1 121831Z 16008KT 07/M11 A3024 RMK A01 T00711108  RH  027%=      5-min Rain = 0
KWT1 121832Z 17008KT 08/M10 A3024 RMK A01 T00751104  RH  027%=      5-min Rain = 0
KWT1 121833Z 15006G11KT 07/M11 A3024 RMK A01 T00711108  RH  027%=      5-min Rain = 0
KWT1 121834Z 14008KT 07/M10 A3024 RMK A01 T00731103  RH  027%=      5-min Rain = 0
KWT1 121835Z 14010KT 08/M10 A3023 RMK A01 T00751104  RH  027%=      5-min Rain = 0
KWT1 121836Z 16009KT 08/M11 A3023 RMK A01 T00751108  RH  026%=      5-min Rain = 0
KWT1 121837Z 16008KT 07/M11 A3023 RMK A01 T00721110  RH  026%=      5-min Rain = 0
KWT1 121838Z 15010KT 07/M11 A3023 RMK A01 T00711109  RH  027%=      5-min Rain = 0
KWT1 121839Z 16010KT 07/M11 A3023 RMK A01 T00701111  RH  026%=      5-min Rain = 0
KWT1 121840Z 15011KT 07/M11 A3023 RMK A01 T00691112  RH  026%=      5-min Rain = 0
KWT1 121841Z 15011KT 07/M11 A3022 RMK A01 T00691111  RH  026%=      5-min Rain = 0
KWT1 121842Z 15011KT 07/M11 A3022 RMK A01 T00701110  RH  026%=      5-min Rain = 0
KWT1 121843Z 15010KT 07/M11 A3022 RMK A01 T00721111  RH  026%=      5-min Rain = 0
KWT1 121844Z 14011KT 07/M11 A3022 RMK A01 T00711112  RH  026%=      5-min Rain = 0
KWT1 121845Z 15009KT 07/M11 A3022 RMK A01 T00721109  RH  026%=      5-min Rain = 0
KWT1 121846Z 15009KT 07/M11 A3022 RMK A01 T00731106  RH  027%=      5-min Rain = 0
KWT1 121847Z 16010KT 07/M10 A3022 RMK A01 T00741104  RH  027%=      5-min Rain = 0
KWT1 121848Z 14007KT 07/M10 A3022 RMK A01 T00731104  RH  027%=      5-min Rain = 0
KWT1 121849Z 13008KT 08/M10 A3022 RMK A01 T00751101  RH  027%=      5-min Rain = 0
KWT1 121850Z 12009KT 08/M10 A3022 RMK A01 T00771103  RH  027%=      5-min Rain = 0
KWT1 121851Z 11009KT 08/M10 A3022 RMK A01 T00761103  RH  027%=      5-min Rain = 0
KWT1 121852Z 12009KT 08/M10 A3022 RMK A01 T00781102  RH  027%=      5-min Rain = 0
KWT1 121853Z 11009KT 08/M10 A3022 RMK A01 T00771103  RH  027%=      5-min Rain = 0
KWT1 121854Z 14009KT 08/M10 A3022 RMK A01 T00781103  RH  026%=      5-min Rain = 0
KWT1 121855Z 15006KT 08/M10 A3022 RMK A01 T00781104  RH  026%=      5-min Rain = 0
KWT1 121856Z 15009G14KT 08/M10 A3022 RMK A01 T00781103  RH  026%=      5-min Rain = 0
KWT1 121857Z 13008KT 08/M11 A3022 RMK A01 T00791105  RH  026%=      5-min Rain = 0
KWT1 121858Z 13006KT 08/M11 A3022 RMK A01 T00781105  RH  026%=      5-min Rain = 0
KWT1 121859Z 14004KT 08/M11 A3022 RMK A01 T00781105  RH  026%=      5-min Rain = 0
KWT1 121900Z 16007KT 08/M10 A3022 RMK A01 T00801103  RH  026%=      5-min Rain = 0
KWT1 121901Z 14009KT 08/M10 A3022 RMK A01 T00831103  RH  026%=      5-min Rain = 0
KWT1 121902Z 14010KT 08/M11 A3022 RMK A01 T00811106  RH  025%=      5-min Rain = 0
KWT1 121903Z 13009KT 08/M11 A3021 RMK A01 T00801106  RH  025%=      5-min Rain = 0
KWT1 121904Z 13009KT 08/M11 A3021 RMK A01 T00801105  RH  026%=      5-min Rain = 0
KWT1 121905Z 13008KT 08/M10 A3021 RMK A01 T00801104  RH  026%=      5-min Rain = 0
KWT1 121906Z 13008KT 08/M10 A3021 RMK A01 T00801103  RH  026%=      5-min Rain = 0
KWT1 121907Z 15006KT 08/M10 A3021 RMK A01 T00791103  RH  026%=      5-min Rain = 0
KWT1 121908Z 13005KT 08/M10 A3021 RMK A01 T00801103  RH  026%=      5-min Rain = 0
KWT1 121909Z 17006KT 08/M10 A3021 RMK A01 T00811103  RH  026%=      5-min Rain = 0
KWT1 121910Z 14006KT 08/M10 A3021 RMK A01 T00831102  RH  026%=      5-min Rain = 0
KWT1 121911Z 15009KT 09/M10 A3021 RMK A01 T00851101  RH  026%=      5-min Rain = 0
KWT1 121912Z 16007KT 09/M10 A3021 RMK A01 T00871103  RH  025%=      5-min Rain = 0
KWT1 121913Z 12008KT 09/M10 A3021 RMK A01 T00861104  RH  025%=      5-min Rain = 0
KWT1 121914Z 12009KT 09/M11 A302 RMK A01 T00861105  RH  025%=      5-min Rain = 0
KWT1 121915Z 14008KT 08/M11 A302 RMK A01 T00841105  RH  025%=      5-min Rain = 0
KWT1 121916Z 15008G13KT 08/M11 A302 RMK A01 T00831105  RH  025%=      5-min Rain = 0
KWT1 121917Z 17010KT 08/M11 A302 RMK A01 T00831106  RH  025%=      5-min Rain = 0
KWT1 121918Z 16010KT 08/M11 A302 RMK A01 T00841107  RH  025%=      5-min Rain = 0
KWT1 121919Z 14010KT 08/M11 A302 RMK A01 T00841108  RH  025%=      5-min Rain = 0
KWT1 121920Z 14007KT 09/M11 A302 RMK A01 T00851107  RH  024%=      5-min Rain = 0
KWT1 121921Z 15011KT 09/M11 A302 RMK A01 T00861106  RH  025%=      5-min Rain = 0
KWT1 121922Z 14009KT 09/M10 A302 RMK A01 T00881103  RH  025%=      5-min Rain = 0
KWT1 121923Z 14007KT 09/M10 A302 RMK A01 T00891104  RH  024%=      5-min Rain = 0
KWT1 121924Z 14007KT 09/M10 A302 RMK A01 T00881104  RH  025%=      5-min Rain = 0
KWT1 121925Z 16010KT 09/M11 A302 RMK A01 T00881105  RH  024%=      5-min Rain = 0
KWT1 121926Z 16008KT 09/M11 A302 RMK A01 T00881109  RH  024%=      5-min Rain = 0
KWT1 121927Z 16009G14KT 09/M11 A302 RMK A01 T00871110  RH  024%=      5-min Rain = 0
KWT1 121928Z 17011KT 09/M11 A302 RMK A01 T00871111  RH  023%=      5-min Rain = 0
KWT1 121929Z 15009KT 09/M11 A302 RMK A01 T00881112  RH  023%=      5-min Rain = 0
KWT1 121930Z 17010KT 09/M11 A302 RMK A01 T00881111  RH  023%=      5-min Rain = 0
KWT1 121931Z 17010KT 09/M11 A3019 RMK A01 T00881112  RH  023%=      5-min Rain = 0
KWT1 121932Z 16010KT 09/M11 A3019 RMK A01 T00871112  RH  023%=      5-min Rain = 0
KWT1 121933Z 14006KT 09/M11 A3019 RMK A01 T00871113  RH  023%=      5-min Rain = 0
KWT1 121934Z 15006KT 09/M11 A3019 RMK A01 T00891109  RH  023%=      5-min Rain = 0
KWT1 121935Z 15008KT 09/M11 A3019 RMK A01 T00921108  RH  023%=      5-min Rain = 0
KWT1 121936Z 13011KT 09/M11 A3019 RMK A01 T00931109  RH  023%=      5-min Rain = 0
KWT1 121937Z 13010KT 09/M11 A3019 RMK A01 T00931112  RH  022%=      5-min Rain = 0
KWT1 121938Z 13009KT 09/M11 A3019 RMK A01 T00921113  RH  022%=      5-min Rain = 0
KWT1 121939Z 14008KT 09/M11 A3019 RMK A01 T00921112  RH  022%=      5-min Rain = 0
KWT1 121940Z 16011KT 10/M11 A3019 RMK A01 T00951109  RH  022%=      5-min Rain = 0
KWT1 121941Z 15010KT 10/M11 A3019 RMK A01 T00961112  RH  022%=      5-min Rain = 0
KWT1 121942Z 16011KT 10/M11 A3019 RMK A01 T00971111  RH  022%=      5-min Rain = 0
KWT1 121943Z 16011KT 10/M11 A3019 RMK A01 T00951113  RH  022%=      5-min Rain = 0
KWT1 121944Z 14009KT 09/M11 A3019 RMK A01 T00921113  RH  022%=      5-min Rain = 0
KWT1 121945Z 15009KT 09/M11 A3019 RMK A01 T00931111  RH  022%=      5-min Rain = 0
KWT1 121946Z 16006KT 09/M11 A3018 RMK A01 T00921113  RH  022%=      5-min Rain = 0
KWT1 121947Z 15008KT 09/M11 A3018 RMK A01 T00921111  RH  023%=      5-min Rain = 0
KWT1 121948Z 14009KT 10/M11 A3018 RMK A01 T00971107  RH  023%=      5-min Rain = 0
KWT1 121949Z 16008KT 10/M11 A3018 RMK A01 T01011106  RH  022%=      5-min Rain = 0
KWT1 121950Z 14010KT 10/M11 A3018 RMK A01 T01021109  RH  021%=      5-min Rain = 0
KWT1 121951Z 16013KT 10/M11 A3018 RMK A01 T01001112  RH  021%=      5-min Rain = 0
KWT1 121952Z 15012KT 10/M11 A3018 RMK A01 T00991112  RH  021%=      5-min Rain = 0
KWT1 121953Z 17012KT 10/M11 A3018 RMK A01 T00981111  RH  022%=      5-min Rain = 0
KWT1 121954Z 16009KT 10/M11 A3018 RMK A01 T00981112  RH  022%=      5-min Rain = 0
KWT1 121955Z 15011KT 10/M11 A3018 RMK A01 T00981111  RH  022%=      5-min Rain = 0
KWT1 121956Z 16010KT 10/M11 A3018 RMK A01 T00981112  RH  022%=      5-min Rain = 0
KWT1 121957Z 16008KT 10/M12 A3017 RMK A01 T00951115  RH  021%=      5-min Rain = 0
KWT1 121958Z 17006KT 10/M11 A3017 RMK A01 T00951111  RH  022%=      5-min Rain = 0
KWT1 121959Z 18008KT 10/M11 A3017 RMK A01 T00981109  RH  022%=      5-min Rain = 0
KWT1 122000Z 17010KT 10/M11 A3017 RMK A01 T01011108  RH  022%=      5-min Rain = 0
KWT1 122001Z 17012KT 10/M11 A3017 RMK A01 T01011110  RH  021%=      5-min Rain = 0
KWT1 122002Z 15012KT 10/M11 A3017 RMK A01 T00981112  RH  021%=      5-min Rain = 0
KWT1 122003Z 15013KT 10/M11 A3017 RMK A01 T01001110  RH  022%=      5-min Rain = 0
KWT1 122004Z 15013KT 10/M11 A3017 RMK A01 T01011110  RH  021%=      5-min Rain = 0
KWT1 122005Z 16012KT 10/M11 A3017 RMK A01 T01011112  RH  021%=      5-min Rain = 0
KWT1 122006Z 17012KT 10/M11 A3017 RMK A01 T00991114  RH  021%=      5-min Rain = 0
KWT1 122007Z 16010KT 10/M12 A3017 RMK A01 T00961115  RH  021%=      5-min Rain = 0
KWT1 122008Z 16009KT 10/M11 A3017 RMK A01 T00961113  RH  022%=      5-min Rain = 0
KWT1 122009Z 17013KT 10/M11 A3017 RMK A01 T00991109  RH  022%=      5-min Rain = 0
KWT1 122010Z 15010KT 10/M11 A3017 RMK A01 T01011111  RH  021%=      5-min Rain = 0
KWT1 122011Z 16011KT 10/M11 A3017 RMK A01 T01021111  RH  021%=      5-min Rain = 0
KWT1 122012Z 16012KT 10/M11 A3017 RMK A01 T01031111  RH  021%=      5-min Rain = 0
KWT1 122013Z 16011KT 10/M11 A3017 RMK A01 T01021114  RH  021%=      5-min Rain = 0
KWT1 122014Z 16011KT 10/M12 A3017 RMK A01 T01001115  RH  021%=      5-min Rain = 0
KWT1 122015Z 16012KT 10/M11 A3016 RMK A01 T01011113  RH  021%=      5-min Rain = 0
KWT1 122016Z 17012KT 10/M11 A3017 RMK A01 T01031111  RH  021%=      5-min Rain = 0
KWT1 122017Z 18012KT 10/M11 A3017 RMK A01 T01041112  RH  021%=      5-min Rain = 0
KWT1 122018Z 17010KT 10/M11 A3017 RMK A01 T01041112  RH  021%=      5-min Rain = 0
KWT1 122019Z 18011KT 10/M11 A3017 RMK A01 T01041113  RH  021%=      5-min Rain = 0
KWT1 122020Z 19012KT 10/M11 A3017 RMK A01 T01041113  RH  021%=      5-min Rain = 0
KWT1 122021Z 19011KT 10/M11 A3017 RMK A01 T01021114  RH  021%=      5-min Rain = 0
KWT1 122022Z 19008KT 10/M11 A3017 RMK A01 T01011114  RH  021%=      5-min Rain = 0
KWT1 122023Z 18009KT 10/M11 A3017 RMK A01 T01031112  RH  021%=      5-min Rain = 0
KWT1 122024Z 18010KT 10/M11 A3017 RMK A01 T01041113  RH  021%=      5-min Rain = 0
KWT1 122025Z 18008KT 10/M11 A3017 RMK A01 T01041113  RH  021%=      5-min Rain = 0
KWT1 122026Z 16011KT 11/M11 A3017 RMK A01 T01051112  RH  021%=      5-min Rain = 0
KWT1 122027Z 16011KT 11/M11 A3017 RMK A01 T01081111  RH  020%=      5-min Rain = 0
KWT1 122028Z 16007KT 11/M11 A3017 RMK A01 T01071113  RH  020%=      5-min Rain = 0
KWT1 122029Z 16007KT 11/M11 A3017 RMK A01 T01061112  RH  020%=      5-min Rain = 0
KWT1 122030Z 19010KT 11/M11 A3017 RMK A01 T01081110  RH  020%=      5-min Rain = 0
KWT1 122031Z 19008KT 11/M11 A3017 RMK A01 T01071113  RH  020%=      5-min Rain = 0
KWT1 122032Z 20009KT 10/M11 A3017 RMK A01 T01041114  RH  020%=      5-min Rain = 0
KWT1 122033Z 19011KT 10/M11 A3017 RMK A01 T01041114  RH  020%=      5-min Rain = 0
KWT1 122034Z 18010KT 11/M11 A3017 RMK A01 T01051114  RH  020%=      5-min Rain = 0
KWT1 122035Z 17010KT 11/M11 A3017 RMK A01 T01061112  RH  020%=      5-min Rain = 0
KWT1 122036Z 16014KT 11/M11 A3017 RMK A01 T01071113  RH  020%=      5-min Rain = 0
KWT1 122037Z 18011KT 11/M11 A3017 RMK A01 T01061114  RH  020%=      5-min Rain = 0
KWT1 122038Z 19012KT 11/M11 A3017 RMK A01 T01071114  RH  020%=      5-min Rain = 0
KWT1 122039Z 19010KT 10/M12 A3017 RMK A01 T01041116  RH  020%=      5-min Rain = 0
KWT1 122040Z 21009KT 11/M11 A3017 RMK A01 T01051112  RH  020%=      5-min Rain = 0
KWT1 122041Z 20010KT 11/M11 A3017 RMK A01 T01091112  RH  020%=      5-min Rain = 0
KWT1 122042Z 19010KT 11/M12 A3017 RMK A01 T01081115  RH  020%=      5-min Rain = 0
KWT1 122043Z 18009KT 11/M12 A3017 RMK A01 T01081115  RH  020%=      5-min Rain = 0
KWT1 122044Z 17008KT 11/M12 A3017 RMK A01 T01061117  RH  020%=      5-min Rain = 0
KWT1 122045Z 20006G11KT 11/M12 A3017 RMK A01 T01061115  RH  020%=      5-min Rain = 0
KWT1 122046Z 18009KT 11/M11 A3016 RMK A01 T01091112  RH  020%=      5-min Rain = 0
KWT1 122047Z 20009KT 11/M11 A3017 RMK A01 T01111113  RH  020%=      5-min Rain = 0
KWT1 122048Z 20012KT 11/M11 A3017 RMK A01 T01111113  RH  020%=      5-min Rain = 0
KWT1 122049Z 18013KT 11/M11 A3017 RMK A01 T01121113  RH  020%=      5-min Rain = 0
KWT1 122050Z 18011KT 11/M12 A3017 RMK A01 T01111115  RH  019%=      5-min Rain = 0
KWT1 122051Z 17012KT 11/M12 A3017 RMK A01 T01091116  RH  019%=      5-min Rain = 0
KWT1 122052Z 17012KT 11/M12 A3017 RMK A01 T01091115  RH  019%=      5-min Rain = 0
KWT1 122053Z 18012KT 11/M12 A3017 RMK A01 T01091115  RH  019%=      5-min Rain = 0
KWT1 122054Z 18009KT 11/M12 A3017 RMK A01 T01081116  RH  019%=      5-min Rain = 0
KWT1 122055Z 17007KT 11/M12 A3017 RMK A01 T01061117  RH  020%=      5-min Rain = 0
KWT1 122056Z 18008KT 11/M12 A3017 RMK A01 T01061118  RH  019%=      5-min Rain = 0
KWT1 122057Z 17009KT 11/M12 A3017 RMK A01 T01081117  RH  019%=      5-min Rain = 0
KWT1 122058Z 17009KT 11/M12 A3017 RMK A01 T01091119  RH  019%=      5-min Rain = 0
KWT1 122059Z 17010KT 11/M12 A3017 RMK A01 T01091118  RH  019%=      5-min Rain = 0
KWT1 122100Z 16009KT 11/M12 A3017 RMK A01 T01091117  RH  019%=      5-min Rain = 0
KWT1 122101Z 15009KT 11/M12 A3017 RMK A01 T01101116  RH  019%=      5-min Rain = 0
KWT1 122102Z 16009KT 11/M12 A3017 RMK A01 T01111116  RH  019%=      5-min Rain = 0
KWT1 122103Z 18011KT 11/M12 A3017 RMK A01 T01121115  RH  019%=      5-min Rain = 0
KWT1 122104Z 18009KT 11/M12 A3017 RMK A01 T01111117  RH  019%=      5-min Rain = 0
KWT1 122105Z 20010KT 11/M12 A3017 RMK A01 T01111117  RH  019%=      5-min Rain = 0
KWT1 122106Z 19007KT 11/M12 A3017 RMK A01 T01091119  RH  019%=      5-min Rain = 0
KWT1 122107Z 20009KT 11/M12 A3017 RMK A01 T01081118  RH  019%=      5-min Rain = 0
KWT1 122108Z 20008KT 11/M12 A3017 RMK A01 T01091117  RH  019%=      5-min Rain = 0
KWT1 122109Z 19006KT 11/M12 A3017 RMK A01 T01081117  RH  019%=      5-min Rain = 0
KWT1 122110Z 19008KT 11/M12 A3017 RMK A01 T01091116  RH  019%=      5-min Rain = 0
KWT1 122111Z 20009KT 11/M11 A3017 RMK A01 T01121114  RH  019%=      5-min Rain = 0
KWT1 122112Z 20011KT 11/M11 A3017 RMK A01 T01141114  RH  019%=      5-min Rain = 0
KWT1 122113Z 18007KT 11/M12 A3017 RMK A01 T01121116  RH  019%=      5-min Rain = 0
KWT1 122114Z 19006KT 11/M12 A3017 RMK A01 T01091118  RH  019%=      5-min Rain = 0
KWT1 122115Z 20007KT 11/M12 A3017 RMK A01 T01081118  RH  019%=      5-min Rain = 0
KWT1 122116Z 18006KT 11/M12 A3017 RMK A01 T01071118  RH  019%=      5-min Rain = 0
KWT1 122117Z 18005KT 11/M12 A3016 RMK A01 T01081117  RH  019%=      5-min Rain = 0
KWT1 122118Z 19007KT 11/M12 A3016 RMK A01 T01091116  RH  019%=      5-min Rain = 0
KWT1 122119Z 18011G16KT 11/M12 A3016 RMK A01 T01101117  RH  019%=      5-min Rain = 0
KWT1 122120Z 19014KT 11/M12 A3016 RMK A01 T01101117  RH  019%=      5-min Rain = 0
KWT1 122121Z 18011KT 11/M12 A3016 RMK A01 T01091118  RH  019%=      5-min Rain = 0
KWT1 122122Z 17009KT 11/M12 A3017 RMK A01 T01091116  RH  019%=      5-min Rain = 0
KWT1 122123Z 17010KT 11/M12 A3017 RMK A01 T01101116  RH  019%=      5-min Rain = 0
KWT1 122124Z 19009KT 11/M12 A3017 RMK A01 T01101116  RH  019%=      5-min Rain = 0
KWT1 122125Z 19007KT 11/M12 A3017 RMK A01 T01101116  RH  019%=      5-min Rain = 0
KWT1 122126Z 18008KT 11/M12 A3017 RMK A01 T01091117  RH  019%=      5-min Rain = 0
KWT1 122127Z 17008KT 11/M12 A3017 RMK A01 T01081117  RH  019%=      5-min Rain = 0
KWT1 122128Z 18012KT 11/M12 A3017 RMK A01 T01091115  RH  020%=      5-min Rain = 0
KWT1 122129Z 17009KT 11/M12 A3017 RMK A01 T01101115  RH  019%=      5-min Rain = 0
KWT1 122130Z 17010KT 11/M11 A3017 RMK A01 T01101114  RH  020%=      5-min Rain = 0
KWT1 122131Z 18008KT 11/M12 A3017 RMK A01 T01101115  RH  019%=      5-min Rain = 0
KWT1 122132Z 18008KT 11/M12 A3017 RMK A01 T01101115  RH  019%=      5-min Rain = 0
KWT1 122133Z 18009KT 11/M11 A3017 RMK A01 T01111114  RH  019%=      5-min Rain = 0
KWT1 122134Z 15009KT 11/M12 A3017 RMK A01 T01101115  RH  019%=      5-min Rain = 0
KWT1 122135Z 15008KT 11/M12 A3017 RMK A01 T01101115  RH  019%=      5-min Rain = 0
KWT1 122136Z 15012KT 11/M11 A3017 RMK A01 T01101114  RH  020%=      5-min Rain = 0
KWT1 122137Z 16010KT 11/M11 A3017 RMK A01 T01111113  RH  020%=      5-min Rain = 0
KWT1 122138Z 16011KT 11/M11 A3017 RMK A01 T01111114  RH  019%=      5-min Rain = 0
KWT1 122139Z 16012KT 11/M11 A3016 RMK A01 T01121113  RH  019%=      5-min Rain = 0
KWT1 122140Z 16012KT 11/M11 A3016 RMK A01 T01131114  RH  019%=      5-min Rain = 0
KWT1 122141Z 15011KT 11/M12 A3016 RMK A01 T01111115  RH  019%=      5-min Rain = 0
KWT1 122142Z 16010KT 11/M11 A3016 RMK A01 T01111114  RH  019%=      5-min Rain = 0
KWT1 122143Z 18006KT 11/M11 A3016 RMK A01 T01121114  RH  019%=      5-min Rain = 0
KWT1 122144Z 18005KT 11/M11 A3016 RMK A01 T01121114  RH  019%=      5-min Rain = 0
KWT1 122145Z 16010KT 11/M11 A3016 RMK A01 T01131113  RH  019%=      5-min Rain = 0
KWT1 122146Z 18009KT 11/M11 A3016 RMK A01 T01131113  RH  019%=      5-min Rain = 0
KWT1 122147Z 19008KT 12/M11 A3017 RMK A01 T01151111  RH  019%=      5-min Rain = 0
KWT1 122148Z 19007KT 12/M11 A3017 RMK A01 T01151113  RH  019%=      5-min Rain = 0
KWT1 122149Z 18007KT 12/M11 A3017 RMK A01 T01151113  RH  019%=      5-min Rain = 0
KWT1 122150Z 16007KT 12/M11 A3017 RMK A01 T01161111  RH  019%=      5-min Rain = 0
KWT1 122151Z 17008KT 12/M11 A3017 RMK A01 T01161111  RH  019%=      5-min Rain = 0
KWT1 122152Z 18007KT 11/M11 A3017 RMK A01 T01141113  RH  019%=      5-min Rain = 0
KWT1 122153Z 19005KT 11/M11 A3017 RMK A01 T01121114  RH  019%=      5-min Rain = 0
KWT1 122154Z 20005KT 11/M11 A3017 RMK A01 T01111113  RH  020%=      5-min Rain = 0
KWT1 122155Z 17006KT 11/M11 A3017 RMK A01 T01111111  RH  020%=      5-min Rain = 0
KWT1 122156Z 20008G14KT 11/M11 A3017 RMK A01 T01131110  RH  020%=      5-min Rain = 0
KWT1 122157Z 18010KT 12/M11 A3017 RMK A01 T01151110  RH  020%=      5-min Rain = 0
KWT1 122158Z 17009KT 12/M11 A3017 RMK A01 T01151111  RH  019%=      5-min Rain = 0
KWT1 122159Z 18008KT 11/M11 A3017 RMK A01 T01141112  RH  019%=      5-min Rain = 0
KWT1 122200Z 18007KT 11/M11 A3017 RMK A01 T01121113  RH  020%=      5-min Rain = 0
KWT1 122201Z 17006KT 11/M11 A3017 RMK A01 T01111112  RH  020%=      5-min Rain = 0
KWT1 122202Z 16010KT 11/M11 A3017 RMK A01 T01111111  RH  020%=      5-min Rain = 0
KWT1 122203Z 12005KT 11/M11 A3017 RMK A01 T01111112  RH  020%=      5-min Rain = 0
KWT1 122204Z 14004KT 11/M11 A3017 RMK A01 T01101111  RH  020%=      5-min Rain = 0
KWT1 122205Z 16008KT 11/M11 A3017 RMK A01 T01121110  RH  020%=      5-min Rain = 0
KWT1 122206Z 16007KT 11/M11 A3017 RMK A01 T01131110  RH  020%=      5-min Rain = 0
KWT1 122207Z 15007KT 11/M11 A3017 RMK A01 T01131110  RH  020%=      5-min Rain = 0
KWT1 122208Z 14006KT 11/M11 A3017 RMK A01 T01121109  RH  020%=      5-min Rain = 0
KWT1 122209Z 15009KT 11/M11 A3017 RMK A01 T01141108  RH  020%=      5-min Rain = 0
KWT1 122210Z 15010KT 11/M11 A3017 RMK A01 T01141108  RH  020%=      5-min Rain = 0
KWT1 122211Z 15010KT 12/M11 A3017 RMK A01 T01151108  RH  020%=      5-min Rain = 0
KWT1 122212Z 15009KT 11/M11 A3017 RMK A01 T01141109  RH  020%=      5-min Rain = 0
KWT1 122213Z 15009KT 11/M11 A3017 RMK A01 T01141109  RH  020%=      5-min Rain = 0
KWT1 122214Z 14008KT 11/M11 A3017 RMK A01 T01131108  RH  020%=      5-min Rain = 0
KWT1 122215Z 13008KT 11/M11 A3017 RMK A01 T01131108  RH  020%=      5-min Rain = 0
KWT1 122216Z 15008KT 11/M11 A3017 RMK A01 T01141108  RH  020%=      5-min Rain = 0
KWT1 122217Z 16009KT 11/M11 A3017 RMK A01 T01131108  RH  020%=      5-min Rain = 0
KWT1 122218Z 17005KT 11/M11 A3017 RMK A01 T01131109  RH  020%=      5-min Rain = 0
KWT1 122219Z 15007KT 11/M11 A3017 RMK A01 T01131108  RH  020%=      5-min Rain = 0
KWT1 122220Z 15010KT 11/M11 A3017 RMK A01 T01131108  RH  020%=      5-min Rain = 0
KWT1 122221Z 16007KT 11/M11 A3017 RMK A01 T01131108  RH  020%=      5-min Rain = 0
KWT1 122222Z 16008KT 11/M11 A3017 RMK A01 T01141106  RH  020%=      5-min Rain = 0
KWT1 122223Z 15009KT 11/M11 A3017 RMK A01 T01141107  RH  020%=      5-min Rain = 0
KWT1 122224Z 16006KT 11/M11 A3017 RMK A01 T01131108  RH  020%=      5-min Rain = 0
KWT1 122225Z 15006KT 11/M11 A3017 RMK A01 T01121108  RH  020%=      5-min Rain = 0
KWT1 122226Z 14009KT 11/M11 A3017 RMK A01 T01121107  RH  020%=      5-min Rain = 0
KWT1 122227Z 15007KT 11/M11 A3017 RMK A01 T01131107  RH  020%=      5-min Rain = 0
KWT1 122228Z 16006KT 11/M11 A3017 RMK A01 T01111107  RH  020%=      5-min Rain = 0
KWT1 122229Z 13008KT 11/M11 A3017 RMK A01 T01101107  RH  021%=      5-min Rain = 0
KWT1 122230Z 13008KT 11/M11 A3017 RMK A01 T01111106  RH  021%=      5-min Rain = 0
KWT1 122231Z 14008KT 11/M11 A3017 RMK A01 T01121105  RH  021%=      5-min Rain = 0
KWT1 122232Z 14009KT 11/M11 A3017 RMK A01 T01131105  RH  021%=      5-min Rain = 0
KWT1 122233Z 15009KT 11/M11 A3017 RMK A01 T01131105  RH  021%=      5-min Rain = 0
KWT1 122234Z 15009KT 11/M11 A3017 RMK A01 T01131106  RH  021%=      5-min Rain = 0
KWT1 122235Z 15008KT 11/M11 A3017 RMK A01 T01131105  RH  021%=      5-min Rain = 0
KWT1 122236Z 15008KT 11/M11 A3017 RMK A01 T01121106  RH  021%=      5-min Rain = 0
KWT1 122237Z 15008KT 11/M11 A3017 RMK A01 T01111105  RH  021%=      5-min Rain = 0
KWT1 122238Z 14007KT 11/M11 A3017 RMK A01 T01111105  RH  021%=      5-min Rain = 0
KWT1 122239Z 17009KT 11/M10 A3017 RMK A01 T01111104  RH  021%=      5-min Rain = 0
KWT1 122240Z 16010KT 11/M11 A3017 RMK A01 T01111105  RH  021%=      5-min Rain = 0
KWT1 122241Z 17009KT 11/M11 A3017 RMK A01 T01101105  RH  021%=      5-min Rain = 0
KWT1 122242Z 17007KT 11/M11 A3017 RMK A01 T01091105  RH  021%=      5-min Rain = 0
KWT1 122243Z 15007KT 11/M11 A3017 RMK A01 T01081105  RH  021%=      5-min Rain = 0
KWT1 122244Z 15008KT 11/M10 A3017 RMK A01 T01091104  RH  021%=      5-min Rain = 0
KWT1 122245Z 16007KT 11/M10 A3017 RMK A01 T01091104  RH  021%=      5-min Rain = 0
KWT1 122246Z 15007KT 11/M10 A3017 RMK A01 T01101103  RH  021%=      5-min Rain = 0
KWT1 122247Z 16006KT 11/M10 A3017 RMK A01 T01111103  RH  021%=      5-min Rain = 0
KWT1 122248Z 15008KT 11/M10 A3017 RMK A01 T01111102  RH  021%=      5-min Rain = 0
KWT1 122249Z 15007KT 11/M10 A3017 RMK A01 T01111104  RH  021%=      5-min Rain = 0
KWT1 122250Z 15007KT 11/M10 A3017 RMK A01 T01101103  RH  021%=      5-min Rain = 0
KWT1 122251Z 15007KT 11/M10 A3017 RMK A01 T01111103  RH  021%=      5-min Rain = 0
KWT1 122252Z 13007KT 11/M10 A3017 RMK A01 T01111103  RH  021%=      5-min Rain = 0
KWT1 122253Z 13008KT 11/M10 A3017 RMK A01 T01101103  RH  021%=      5-min Rain = 0
KWT1 122254Z 14008KT 11/M10 A3017 RMK A01 T01101103  RH  021%=      5-min Rain = 0
KWT1 122255Z 13009KT 11/M10 A3017 RMK A01 T01101103  RH  021%=      5-min Rain = 0
KWT1 122256Z 14007KT 11/M10 A3017 RMK A01 T01091104  RH  021%=      5-min Rain = 0
KWT1 122257Z 14006KT 11/M10 A3017 RMK A01 T01081104  RH  021%=      5-min Rain = 0
KWT1 122258Z 13006KT 11/M10 A3017 RMK A01 T01081103  RH  022%=      5-min Rain = 0
KWT1 122259Z 13008KT 11/M10 A3017 RMK A01 T01091103  RH  022%=      5-min Rain = 0
KWT1 122300Z 13007KT 11/M10 A3017 RMK A01 T01091103  RH  021%=      5-min Rain = 0
KWT1 122301Z 15007KT 11/M10 A3017 RMK A01 T01081103  RH  022%=      5-min Rain = 0
KWT1 122302Z 15008KT 11/M10 A3017 RMK A01 T01091103  RH  022%=      5-min Rain = 0
KWT1 122303Z 15007KT 11/M10 A3017 RMK A01 T01091103  RH  022%=      5-min Rain = 0
KWT1 122304Z 14007KT 11/M10 A3017 RMK A01 T01091103  RH  021%=      5-min Rain = 0
KWT1 122305Z 15005KT 11/M10 A3017 RMK A01 T01091103  RH  022%=      5-min Rain = 0
KWT1 122306Z 15006KT 11/M10 A3017 RMK A01 T01091102  RH  022%=      5-min Rain = 0
KWT1 122307Z 15007KT 11/M10 A3017 RMK A01 T01091103  RH  021%=      5-min Rain = 0
KWT1 122308Z 15006KT 11/M10 A3017 RMK A01 T01091103  RH  022%=      5-min Rain = 0
KWT1 122309Z 15005KT 11/M10 A3017 RMK A01 T01091103  RH  022%=      5-min Rain = 0
KWT1 122310Z 15005KT 11/M10 A3017 RMK A01 T01081103  RH  022%=      5-min Rain = 0
KWT1 122311Z 13007KT 11/M10 A3017 RMK A01 T01081103  RH  022%=      5-min Rain = 0
KWT1 122312Z 14006KT 11/M10 A3017 RMK A01 T01081103  RH  022%=      5-min Rain = 0
KWT1 122313Z 13006KT 11/M10 A3017 RMK A01 T01071103  RH  022%=      5-min Rain = 0
KWT1 122314Z 13007KT 11/M10 A3017 RMK A01 T01071104  RH  022%=      5-min Rain = 0
KWT1 122315Z 13006KT 11/M10 A3017 RMK A01 T01061104  RH  022%=      5-min Rain = 0
KWT1 122316Z 13007KT 11/M10 A3017 RMK A01 T01061104  RH  022%=      5-min Rain = 0
KWT1 122317Z 13007KT 11/M10 A3017 RMK A01 T01051104  RH  022%=      5-min Rain = 0
KWT1 122318Z 13006KT 11/M11 A3017 RMK A01 T01051105  RH  022%=      5-min Rain = 0
KWT1 122319Z 13006KT 11/M10 A3017 RMK A01 T01051104  RH  022%=      5-min Rain = 0
KWT1 122320Z 14006KT 10/M11 A3017 RMK A01 T01041105  RH  022%=      5-min Rain = 0
KWT1 122321Z 14006KT 10/M11 A3017 RMK A01 T01031105  RH  022%=      5-min Rain = 0
KWT1 122322Z 14006KT 10/M10 A3017 RMK A01 T01031104  RH  022%=      5-min Rain = 0
KWT1 122323Z 14007KT 10/M11 A3017 RMK A01 T01031105  RH  022%=      5-min Rain = 0
KWT1 122324Z 14007KT 10/M11 A3017 RMK A01 T01021105  RH  022%=      5-min Rain = 0
KWT1 122325Z 13008KT 10/M11 A3017 RMK A01 T01021105  RH  022%=      5-min Rain = 0
KWT1 122326Z 14006KT 10/M11 A3017 RMK A01 T01011105  RH  022%=      5-min Rain = 0
KWT1 122327Z 14006KT 10/M11 A3017 RMK A01 T01011105  RH  022%=      5-min Rain = 0
KWT1 122328Z 14006KT 10/M11 A3017 RMK A01 T01011105  RH  022%=      5-min Rain = 0
KWT1 122329Z 13006KT 10/M11 A3017 RMK A01 T01001105  RH  022%=      5-min Rain = 0
KWT1 122330Z 13007KT 10/M11 A3017 RMK A01 T00991106  RH  022%=      5-min Rain = 0
KWT1 122331Z 13006KT 10/M11 A3017 RMK A01 T00991106  RH  022%=      5-min Rain = 0
KWT1 122332Z 13008KT 10/M11 A3017 RMK A01 T00991106  RH  023%=      5-min Rain = 0
KWT1 122333Z 13008KT 10/M11 A3017 RMK A01 T00981106  RH  023%=      5-min Rain = 0
KWT1 122334Z 13009KT 10/M11 A3017 RMK A01 T00981106  RH  023%=      5-min Rain = 0
KWT1 122335Z 14008KT 10/M11 A3017 RMK A01 T00971106  RH  023%=      5-min Rain = 0
KWT1 122336Z 13006KT 10/M11 A3017 RMK A01 T00971106  RH  023%=      5-min Rain = 0
KWT1 122337Z 13007KT 10/M11 A3017 RMK A01 T00961107  RH  023%=      5-min Rain = 0
KWT1 122338Z 13006KT 10/M11 A3017 RMK A01 T00951107  RH  023%=      5-min Rain = 0
KWT1 122339Z 14007KT 09/M11 A3017 RMK A01 T00941107  RH  023%=      5-min Rain = 0
KWT1 122340Z 13007KT 09/M11 A3017 RMK A01 T00931107  RH  023%=      5-min Rain = 0
KWT1 122341Z 13007KT 09/M11 A3017 RMK A01 T00921107  RH  023%=      5-min Rain = 0
KWT1 122342Z 13006KT 09/M11 A3017 RMK A01 T00921107  RH  023%=      5-min Rain = 0
KWT1 122343Z 14006KT 09/M11 A3017 RMK A01 T00911107  RH  024%=      5-min Rain = 0
KWT1 122344Z 14006KT 09/M11 A3017 RMK A01 T00901107  RH  024%=      5-min Rain = 0
KWT1 122345Z 13006KT 09/M11 A3017 RMK A01 T00891107  RH  024%=      5-min Rain = 0
KWT1 122346Z 13006KT 09/M11 A3017 RMK A01 T00881107  RH  024%=      5-min Rain = 0
KWT1 122347Z 13006KT 09/M11 A3017 RMK A01 T00871108  RH  024%=      5-min Rain = 0
KWT1 122348Z 12005KT 09/M11 A3017 RMK A01 T00861108  RH  024%=      5-min Rain = 0
KWT1 122349Z 12005KT 09/M11 A3017 RMK A01 T00851108  RH  024%=      5-min Rain = 0
KWT1 122350Z 12005KT 09/M11 A3018 RMK A01 T00851108  RH  024%=      5-min Rain = 0
KWT1 122351Z 12005KT 08/M11 A3018 RMK A01 T00841108  RH  024%=      5-min Rain = 0
KWT1 122352Z 12006KT 08/M11 A3018 RMK A01 T00821108  RH  025%=      5-min Rain = 0
KWT1 122353Z 13006KT 08/M11 A3018 RMK A01 T00821108  RH  025%=      5-min Rain = 0
KWT1 122354Z 13006KT 08/M11 A3018 RMK A01 T00811108  RH  025%=      5-min Rain = 0
KWT1 122355Z 13006KT 08/M11 A3018 RMK A01 T00801108  RH  025%=      5-min Rain = 0
KWT1 122356Z 13006KT 08/M11 A3018 RMK A01 T00791108  RH  025%=      5-min Rain = 0
KWT1 122357Z 13007KT 08/M11 A3018 RMK A01 T00781108  RH  025%=      5-min Rain = 0
KWT1 122358Z 13007KT 08/M11 A3017 RMK A01 T00781109  RH  025%=      5-min Rain = 0
KWT1 122359Z 13007KT 08/M11 A3017 RMK A01 T00771108  RH  025%=      5-min Rain = 0
KWT1 130000Z 13007KT 08/M11 A3017 RMK A01 T00761109  RH  026%=      5-min Rain = 0
KWT1 130001Z 13007KT 08/M11 A3017 RMK A01 T00761108  RH  026%=      5-min Rain = 0
KWT1 130002Z 13007KT 08/M11 A3017 RMK A01 T00761108  RH  026%=      5-min Rain = 0
KWT1 130003Z 13006KT 08/M11 A3017 RMK A01 T00751108  RH  026%=      5-min Rain = 0
KWT1 130004Z 12006KT 07/M11 A3017 RMK A01 T00741109  RH  026%=      5-min Rain = 0
KWT1 130005Z 12006KT 07/M11 A3017 RMK A01 T00741109  RH  026%=      5-min Rain = 0
KWT1 130006Z 13006KT 07/M11 A3018 RMK A01 T00731109  RH  026%=      5-min Rain = 0
KWT1 130007Z 12006KT 07/M11 A3018 RMK A01 T00721109  RH  026%=      5-min Rain = 0
KWT1 130008Z 12006KT 07/M11 A3018 RMK A01 T00721109  RH  026%=      5-min Rain = 0
KWT1 130009Z 12006KT 07/M11 A3018 RMK A01 T00711109  RH  026%=      5-min Rain = 0
KWT1 130010Z 12006KT 07/M11 A3018 RMK A01 T00701109  RH  027%=      5-min Rain = 0
KWT1 130011Z 12006KT 07/M11 A3018 RMK A01 T00701109  RH  027%=      5-min Rain = 0
KWT1 130012Z 12006KT 07/M11 A3018 RMK A01 T00681109  RH  027%=      5-min Rain = 0
KWT1 130013Z 12006KT 07/M11 A3018 RMK A01 T00671110  RH  027%=      5-min Rain = 0
KWT1 130014Z 12006KT 07/M11 A3018 RMK A01 T00661109  RH  027%=      5-min Rain = 0
KWT1 130015Z 12006KT 07/M11 A3018 RMK A01 T00651109  RH  028%=      5-min Rain = 0
KWT1 130016Z 12006KT 06/M11 A3018 RMK A01 T00641109  RH  028%=      5-min Rain = 0
KWT1 130017Z 12007KT 06/M11 A3018 RMK A01 T00631109  RH  028%=      5-min Rain = 0
KWT1 130018Z 12007KT 06/M11 A3018 RMK A01 T00621110  RH  028%=      5-min Rain = 0
KWT1 130019Z 12007KT 06/M11 A3018 RMK A01 T00621110  RH  028%=      5-min Rain = 0
KWT1 130020Z 12006KT 06/M11 A3018 RMK A01 T00611110  RH  028%=      5-min Rain = 0
KWT1 130021Z 12006KT 06/M11 A3019 RMK A01 T00611110  RH  028%=      5-min Rain = 0
KWT1 130022Z 11006KT 06/M11 A3019 RMK A01 T00601110  RH  028%=      5-min Rain = 0
KWT1 130023Z 11006KT 06/M11 A3019 RMK A01 T00591110  RH  029%=      5-min Rain = 0
KWT1 130024Z 11006KT 06/M11 A3019 RMK A01 T00581109  RH  029%=      5-min Rain = 0
KWT1 130025Z 10006KT 06/M11 A3019 RMK A01 T00581109  RH  029%=      5-min Rain = 0
KWT1 130026Z 08007KT 06/M11 A3019 RMK A01 T00571110  RH  029%=      5-min Rain = 0
KWT1 130027Z 08007KT 06/M11 A3019 RMK A01 T00551112  RH  029%=      5-min Rain = 0
KWT1 130028Z 08008KT 05/M11 A3019 RMK A01 T00541110  RH  030%=      5-min Rain = 0
KWT1 130029Z 08007KT 05/M11 A3019 RMK A01 T00541108  RH  030%=      5-min Rain = 0
KWT1 130030Z 08008KT 06/M11 A3019 RMK A01 T00551108  RH  030%=      5-min Rain = 0
KWT1 130031Z 08009KT 06/M11 A3019 RMK A01 T00551108  RH  030%=      5-min Rain = 0
KWT1 130032Z 08008KT 06/M11 A3019 RMK A01 T00551108  RH  030%=      5-min Rain = 0
KWT1 130033Z 08009KT 06/M11 A3019 RMK A01 T00551108  RH  030%=      5-min Rain = 0
KWT1 130034Z 08010KT 06/M11 A3019 RMK A01 T00551108  RH  030%=      5-min Rain = 0
KWT1 130035Z 08009KT 06/M11 A3019 RMK A01 T00551108  RH  030%=      5-min Rain = 0
KWT1 130036Z 08008KT 06/M11 A302 RMK A01 T00551108  RH  030%=      5-min Rain = 0
KWT1 130037Z 08008KT 06/M11 A302 RMK A01 T00551109  RH  030%=      5-min Rain = 0
KWT1 130038Z 09008KT 05/M11 A302 RMK A01 T00541108  RH  030%=      5-min Rain = 0
KWT1 130039Z 08009KT 05/M11 A302 RMK A01 T00531109  RH  030%=      5-min Rain = 0
KWT1 130040Z 09008KT 05/M11 A302 RMK A01 T00521109  RH  030%=      5-min Rain = 0
KWT1 130041Z 08008KT 05/M11 A302 RMK A01 T00521109  RH  030%=      5-min Rain = 0
KWT1 130042Z 08007KT 05/M11 A302 RMK A01 T00521109  RH  030%=      5-min Rain = 0
KWT1 130043Z 08007KT 05/M11 A302 RMK A01 T00511109  RH  030%=      5-min Rain = 0
KWT1 130044Z 08007KT 05/M11 A302 RMK A01 T00501109  RH  031%=      5-min Rain = 0
KWT1 130045Z 08008KT 05/M11 A302 RMK A01 T00491109  RH  031%=      5-min Rain = 0
KWT1 130046Z 08008KT 05/M11 A302 RMK A01 T00491110  RH  031%=      5-min Rain = 0
KWT1 130047Z 08008KT 05/M11 A302 RMK A01 T00491109  RH  031%=      5-min Rain = 0
KWT1 130048Z 08009KT 05/M11 A302 RMK A01 T00491110  RH  031%=      5-min Rain = 0
KWT1 130049Z 08009KT 05/M11 A302 RMK A01 T00491109  RH  031%=      5-min Rain = 0
KWT1 130050Z 08008KT 05/M11 A302 RMK A01 T00501109  RH  031%=      5-min Rain = 0
KWT1 130051Z 08008KT 05/M11 A302 RMK A01 T00501109  RH  031%=      5-min Rain = 0
KWT1 130052Z 08009KT 05/M11 A302 RMK A01 T00501109  RH  031%=      5-min Rain = 0
KWT1 130053Z 08009KT 05/M11 A302 RMK A01 T00501109  RH  031%=      5-min Rain = 0
KWT1 130054Z 08008KT 05/M11 A302 RMK A01 T00491110  RH  031%=      5-min Rain = 0
KWT1 130055Z 08008KT 05/M11 A3021 RMK A01 T00491110  RH  031%=      5-min Rain = 0
KWT1 130056Z 08009KT 05/M11 A3021 RMK A01 T00491110  RH  031%=      5-min Rain = 0
KWT1 130057Z 07009KT 05/M11 A3021 RMK A01 T00481110  RH  031%=      5-min Rain = 0
KWT1 130058Z 08009KT 05/M11 A3021 RMK A01 T00481110  RH  031%=      5-min Rain = 0
KWT1 130059Z 08010KT 05/M11 A3021 RMK A01 T00491110  RH  031%=      5-min Rain = 0
KWT1 130100Z 08009KT 05/M11 A3021 RMK A01 T00501109  RH  030%=      5-min Rain = 0
KWT1 130101Z 08010KT 05/M11 A3021 RMK A01 T00511109  RH  030%=      5-min Rain = 0
KWT1 130102Z 08008KT 05/M11 A3021 RMK A01 T00501110  RH  030%=      5-min Rain = 0
KWT1 130103Z 08009KT 05/M11 A3021 RMK A01 T00491111  RH  030%=      5-min Rain = 0
KWT1 130104Z 07009KT 05/M11 A3021 RMK A01 T00481110  RH  031%=      5-min Rain = 0
KWT1 130105Z 08008KT 05/M11 A3021 RMK A01 T00481110  RH  031%=      5-min Rain = 0
KWT1 130106Z 08010KT 05/M11 A3021 RMK A01 T00491110  RH  031%=      5-min Rain = 0
KWT1 130107Z 07009KT 05/M11 A3021 RMK A01 T00491110  RH  031%=      5-min Rain = 0
KWT1 130108Z 08008KT 05/M11 A3021 RMK A01 T00491110  RH  031%=      5-min Rain = 0
KWT1 130109Z 08009KT 05/M11 A3021 RMK A01 T00481110  RH  031%=      5-min Rain = 0
KWT1 130110Z 07009KT 05/M11 A3021 RMK A01 T00481111  RH  031%=      5-min Rain = 0
KWT1 130111Z 08008KT 05/M11 A3022 RMK A01 T00481111  RH  031%=      5-min Rain = 0
KWT1 130112Z 08009KT 05/M11 A3022 RMK A01 T00481111  RH  031%=      5-min Rain = 0
KWT1 130113Z 08009KT 05/M11 A3022 RMK A01 T00481111  RH  031%=      5-min Rain = 0
KWT1 130114Z 07010KT 05/M11 A3022 RMK A01 T00471111  RH  031%=      5-min Rain = 0
KWT1 130115Z 07009KT 05/M11 A3022 RMK A01 T00481110  RH  031%=      5-min Rain = 0
KWT1 130116Z 07009KT 05/M11 A3022 RMK A01 T00471111  RH  031%=      5-min Rain = 0
KWT1 130117Z 08010KT 05/M11 A3022 RMK A01 T00471111  RH  031%=      5-min Rain = 0
KWT1 130118Z 08010KT 05/M11 A3022 RMK A01 T00471111  RH  031%=      5-min Rain = 0
KWT1 130119Z 08010KT 05/M11 A3022 RMK A01 T00471111  RH  031%=      5-min Rain = 0
KWT1 130120Z 08010KT 05/M11 A3022 RMK A01 T00471110  RH  031%=      5-min Rain = 0
KWT1 130121Z 08010KT 05/M11 A3022 RMK A01 T00471110  RH  031%=      5-min Rain = 0
KWT1 130122Z 08009KT 05/M11 A3022 RMK A01 T00471110  RH  031%=      5-min Rain = 0
KWT1 130123Z 08010KT 05/M11 A3022 RMK A01 T00461111  RH  031%=      5-min Rain = 0
KWT1 130124Z 08009KT 05/M11 A3022 RMK A01 T00461110  RH  031%=      5-min Rain = 0
KWT1 130125Z 08010KT 05/M11 A3022 RMK A01 T00451111  RH  031%=      5-min Rain = 0
KWT1 130126Z 08010KT 05/M11 A3022 RMK A01 T00451111  RH  031%=      5-min Rain = 0
KWT1 130127Z 08009KT 05/M11 A3022 RMK A01 T00451111  RH  031%=      5-min Rain = 0
KWT1 130128Z 08009KT 05/M11 A3022 RMK A01 T00451110  RH  031%=      5-min Rain = 0
KWT1 130129Z 07010KT 05/M11 A3022 RMK A01 T00451111  RH  031%=      5-min Rain = 0
KWT1 130130Z 08010KT 04/M11 A3022 RMK A01 T00441111  RH  031%=      5-min Rain = 0
KWT1 130131Z 07010KT 04/M11 A3022 RMK A01 T00431111  RH  032%=      5-min Rain = 0
KWT1 130132Z 08012KT 04/M11 A3022 RMK A01 T00441111  RH  032%=      5-min Rain = 0
KWT1 130133Z 08011KT 04/M11 A3023 RMK A01 T00441111  RH  031%=      5-min Rain = 0
KWT1 130134Z 08011KT 05/M11 A3023 RMK A01 T00451111  RH  031%=      5-min Rain = 0
KWT1 130135Z 08012KT 05/M11 A3023 RMK A01 T00451111  RH  031%=      5-min Rain = 0
KWT1 130136Z 08012KT 04/M11 A3023 RMK A01 T00441111  RH  031%=      5-min Rain = 0
KWT1 130137Z 08010KT 04/M11 A3023 RMK A01 T00441111  RH  031%=      5-min Rain = 0
KWT1 130138Z 08010KT 04/M11 A3023 RMK A01 T00441111  RH  031%=      5-min Rain = 0
KWT1 130139Z 08011KT 04/M11 A3023 RMK A01 T00431111  RH  032%=      5-min Rain = 0
KWT1 130140Z 07011KT 04/M11 A3023 RMK A01 T00431111  RH  032%=      5-min Rain = 0
KWT1 130141Z 08010KT 04/M11 A3023 RMK A01 T00431111  RH  032%=      5-min Rain = 0
KWT1 130142Z 08009KT 04/M11 A3023 RMK A01 T00421111  RH  032%=      5-min Rain = 0
KWT1 130143Z 08010KT 04/M11 A3023 RMK A01 T00421111  RH  032%=      5-min Rain = 0
KWT1 130144Z 08012KT 04/M11 A3024 RMK A01 T00421111  RH  032%=      5-min Rain = 0
KWT1 130145Z 08012KT 04/M11 A3024 RMK A01 T00421111  RH  032%=      5-min Rain = 0
KWT1 130146Z 07011KT 04/M11 A3024 RMK A01 T00421110  RH  032%=      5-min Rain = 0
KWT1 130147Z 07011KT 04/M11 A3024 RMK A01 T00431110  RH  032%=      5-min Rain = 0
KWT1 130148Z 08011KT 04/M11 A3024 RMK A01 T00421111  RH  032%=      5-min Rain = 0
KWT1 130149Z 08011KT 04/M11 A3024 RMK A01 T00411111  RH  032%=      5-min Rain = 0
KWT1 130150Z 07011KT 04/M11 A3024 RMK A01 T00411111  RH  032%=      5-min Rain = 0
KWT1 130151Z 07011KT 04/M11 A3024 RMK A01 T00411111  RH  032%=      5-min Rain = 0
KWT1 130152Z 07009KT 04/M11 A3024 RMK A01 T00411111  RH  032%=      5-min Rain = 0
KWT1 130153Z 08010KT 04/M11 A3024 RMK A01 T00411111  RH  032%=      5-min Rain = 0
KWT1 130154Z 08010KT 04/M11 A3024 RMK A01 T00401111  RH  032%=      5-min Rain = 0
KWT1 130155Z 07011KT 04/M11 A3024 RMK A01 T00401111  RH  032%=      5-min Rain = 0
KWT1 130156Z 08012KT 04/M11 A3025 RMK A01 T00401111  RH  032%=      5-min Rain = 0
KWT1 130157Z 08010KT 04/M11 A3025 RMK A01 T00401111  RH  032%=      5-min Rain = 0
KWT1 130158Z 08010KT 04/M11 A3025 RMK A01 T00401111  RH  032%=      5-min Rain = 0
KWT1 130159Z 08009KT 04/M11 A3025 RMK A01 T00401111  RH  032%=      5-min Rain = 0
KWT1 130200Z 08009KT 04/M11 A3025 RMK A01 T00391111  RH  032%=      5-min Rain = 0
KWT1 130201Z 08010KT 04/M11 A3025 RMK A01 T00391111  RH  033%=      5-min Rain = 0
KWT1 130202Z 08011KT 04/M11 A3025 RMK A01 T00391111  RH  033%=      5-min Rain = 0
KWT1 130203Z 08011KT 04/M11 A3025 RMK A01 T00391111  RH  032%=      5-min Rain = 0
KWT1 130204Z 08010KT 04/M11 A3025 RMK A01 T00391111  RH  032%=      5-min Rain = 0
KWT1 130205Z 08010KT 04/M11 A3025 RMK A01 T00381112  RH  033%=      5-min Rain = 0
KWT1 130206Z 08010KT 04/M11 A3025 RMK A01 T00381111  RH  033%=      5-min Rain = 0
KWT1 130207Z 08009KT 04/M11 A3025 RMK A01 T00381111  RH  033%=      5-min Rain = 0
KWT1 130208Z 09009KT 04/M11 A3025 RMK A01 T00381111  RH  033%=      5-min Rain = 0
KWT1 130209Z 09010KT 04/M11 A3025 RMK A01 T00371112  RH  033%=      5-min Rain = 0
KWT1 130210Z 08010KT 04/M11 A3025 RMK A01 T00371111  RH  033%=      5-min Rain = 0
KWT1 130211Z 09010KT 04/M11 A3025 RMK A01 T00361112  RH  033%=      5-min Rain = 0
KWT1 130212Z 08010KT 04/M11 A3026 RMK A01 T00361111  RH  033%=      5-min Rain = 0
KWT1 130213Z 08009KT 04/M11 A3026 RMK A01 T00351112  RH  033%=      5-min Rain = 0
KWT1 130214Z 08009KT 04/M11 A3026 RMK A01 T00351112  RH  033%=      5-min Rain = 0
KWT1 130215Z 08009KT 03/M11 A3026 RMK A01 T00341112  RH  034%=      5-min Rain = 0
KWT1 130216Z 08009KT 03/M11 A3026 RMK A01 T00341111  RH  034%=      5-min Rain = 0
KWT1 130217Z 08008KT 03/M11 A3026 RMK A01 T00341111  RH  034%=      5-min Rain = 0
KWT1 130218Z 08009KT 03/M11 A3026 RMK A01 T00341112  RH  034%=      5-min Rain = 0
KWT1 130219Z 08008KT 03/M11 A3026 RMK A01 T00331112  RH  034%=      5-min Rain = 0
KWT1 130220Z 08009G14KT 03/M11 A3027 RMK A01 T00331112  RH  034%=      5-min Rain = 0
KWT1 130221Z 08010KT 03/M11 A3027 RMK A01 T00321112  RH  034%=      5-min Rain = 0
KWT1 130222Z 07009KT 03/M11 A3027 RMK A01 T00341112  RH  034%=      5-min Rain = 0
KWT1 130223Z 07010KT 03/M11 A3027 RMK A01 T00341112  RH  033%=      5-min Rain = 0
KWT1 130224Z 07009KT 03/M11 A3027 RMK A01 T00331113  RH  033%=      5-min Rain = 0
KWT1 130225Z 07009KT 03/M11 A3027 RMK A01 T00341113  RH  033%=      5-min Rain = 0
KWT1 130226Z 06008KT 03/M11 A3027 RMK A01 T00331113  RH  033%=      5-min Rain = 0
KWT1 130227Z 06008KT 03/M11 A3027 RMK A01 T00321114  RH  033%=      5-min Rain = 0
KWT1 130228Z 06009KT 03/M11 A3027 RMK A01 T00321114  RH  033%=      5-min Rain = 0
KWT1 130229Z 07010KT 03/M11 A3027 RMK A01 T00321114  RH  033%=      5-min Rain = 0
KWT1 130230Z 07009KT 03/M11 A3027 RMK A01 T00321114  RH  033%=      5-min Rain = 0
KWT1 130231Z 07010KT 03/M11 A3027 RMK A01 T00331114  RH  033%=      5-min Rain = 0
KWT1 130232Z 07008KT 03/M12 A3027 RMK A01 T00321115  RH  033%=      5-min Rain = 0
KWT1 130233Z 07010KT 03/M12 A3027 RMK A01 T00321115  RH  033%=      5-min Rain = 0
KWT1 130234Z 07010KT 03/M12 A3027 RMK A01 T00311116  RH  033%=      5-min Rain = 0
KWT1 130235Z 07011KT 03/M12 A3027 RMK A01 T00311116  RH  033%=      5-min Rain = 0
KWT1 130236Z 07010KT 03/M12 A3027 RMK A01 T00311116  RH  033%=      5-min Rain = 0
KWT1 130237Z 07009KT 03/M12 A3027 RMK A01 T00311116  RH  033%=      5-min Rain = 0
KWT1 130238Z 08008KT 03/M12 A3027 RMK A01 T00311117  RH  033%=      5-min Rain = 0
KWT1 130239Z 07009KT 03/M12 A3027 RMK A01 T00301117  RH  033%=      5-min Rain = 0
KWT1 130240Z 08010KT 03/M12 A3027 RMK A01 T00291117  RH  033%=      5-min Rain = 0
KWT1 130241Z 07009KT 03/M12 A3027 RMK A01 T00291117  RH  033%=      5-min Rain = 0
KWT1 130242Z 07010KT 03/M12 A3027 RMK A01 T00281117  RH  033%=      5-min Rain = 0
KWT1 130243Z 07010KT 03/M12 A3027 RMK A01 T00281117  RH  033%=      5-min Rain = 0
KWT1 130244Z 07010KT 03/M12 A3027 RMK A01 T00281117  RH  033%=      5-min Rain = 0
KWT1 130245Z 07008KT 03/M12 A3027 RMK A01 T00281118  RH  033%=      5-min Rain = 0
KWT1 130246Z 07009KT 03/M12 A3027 RMK A01 T00281118  RH  033%=      5-min Rain = 0
KWT1 130247Z 07010KT 03/M12 A3027 RMK A01 T00281118  RH  033%=      5-min Rain = 0
KWT1 130248Z 07010KT 03/M12 A3027 RMK A01 T00281118  RH  033%=      5-min Rain = 0
KWT1 130249Z 07011KT 03/M12 A3027 RMK A01 T00281117  RH  033%=      5-min Rain = 0
KWT1 130250Z 07011KT 03/M12 A3027 RMK A01 T00281118  RH  033%=      5-min Rain = 0
KWT1 130251Z 07010KT 03/M12 A3027 RMK A01 T00281118  RH  033%=      5-min Rain = 0
KWT1 130252Z 07010KT 03/M12 A3027 RMK A01 T00281118  RH  033%=      5-min Rain = 0
KWT1 130253Z 07010KT 03/M12 A3027 RMK A01 T00281118  RH  033%=      5-min Rain = 0
KWT1 130254Z 07011KT 03/M12 A3027 RMK A01 T00271118  RH  033%=      5-min Rain = 0
KWT1 130255Z 08009KT 03/M12 A3027 RMK A01 T00271118  RH  034%=      5-min Rain = 0
KWT1 130256Z 08011KT 03/M12 A3027 RMK A01 T00261118  RH  034%=      5-min Rain = 0
KWT1 130257Z 07011KT 03/M12 A3028 RMK A01 T00261118  RH  034%=      5-min Rain = 0
KWT1 130258Z 07011KT 03/M12 A3028 RMK A01 T00261118  RH  034%=      5-min Rain = 0
KWT1 130259Z 06012KT 03/M12 A3028 RMK A01 T00251118  RH  034%=      5-min Rain = 0
KWT1 130300Z 06011KT 03/M12 A3029 RMK A01 T00251118  RH  034%=      5-min Rain = 0
KWT1 130301Z 05011KT 03/M12 A3029 RMK A01 T00251118  RH  034%=      5-min Rain = 0
KWT1 130302Z 05011KT 03/M12 A3029 RMK A01 T00251118  RH  034%=      5-min Rain = 0
KWT1 130303Z 05011KT 02/M12 A3029 RMK A01 T00241117  RH  034%=      5-min Rain = 0
KWT1 130304Z 05011KT 02/M12 A303 RMK A01 T00241117  RH  035%=      5-min Rain = 0
KWT1 130305Z 05010KT 02/M12 A3029 RMK A01 T00241118  RH  034%=      5-min Rain = 0
KWT1 130306Z 05011KT 02/M12 A3029 RMK A01 T00231118  RH  034%=      5-min Rain = 0
KWT1 130307Z 06008KT 02/M12 A3029 RMK A01 T00231118  RH  034%=      5-min Rain = 0
KWT1 130308Z 06011KT 02/M12 A3029 RMK A01 T00231118  RH  035%=      5-min Rain = 0
KWT1 130309Z 06009KT 02/M12 A3029 RMK A01 T00221118  RH  035%=      5-min Rain = 0
KWT1 130310Z 06012KT 02/M12 A303 RMK A01 T00221118  RH  035%=      5-min Rain = 0
KWT1 130311Z 05011KT 02/M12 A303 RMK A01 T00211118  RH  035%=      5-min Rain = 0
KWT1 130312Z 06011KT 02/M12 A303 RMK A01 T00211118  RH  035%=      5-min Rain = 0
KWT1 130313Z 05009KT 02/M12 A303 RMK A01 T00211118  RH  035%=      5-min Rain = 0
KWT1 130314Z 05011KT 02/M12 A3031 RMK A01 T00211117  RH  035%=      5-min Rain = 0
KWT1 130315Z 05011KT 02/M12 A3031 RMK A01 T00211118  RH  035%=      5-min Rain = 0
KWT1 130316Z 05011KT 02/M12 A3031 RMK A01 T00211118  RH  035%=      5-min Rain = 0
KWT1 130317Z 05012KT 02/M12 A3031 RMK A01 T00211118  RH  035%=      5-min Rain = 0
KWT1 130318Z 05011KT 02/M12 A3031 RMK A01 T00211118  RH  035%=      5-min Rain = 0
KWT1 130319Z 05010KT 02/M12 A3031 RMK A01 T00211118  RH  035%=      5-min Rain = 0
KWT1 130320Z 05012KT 02/M12 A3031 RMK A01 T00201119  RH  035%=      5-min Rain = 0
KWT1 130321Z 05009KT 02/M12 A3031 RMK A01 T00201119  RH  035%=      5-min Rain = 0
KWT1 130322Z 05010KT 02/M12 A3031 RMK A01 T00201119  RH  035%=      5-min Rain = 0
KWT1 130323Z 05010KT 02/M12 A3031 RMK A01 T00191119  RH  035%=      5-min Rain = 0
KWT1 130324Z 05010KT 02/M12 A3031 RMK A01 T00191119  RH  035%=      5-min Rain = 0
KWT1 130325Z 06011KT 02/M12 A3031 RMK A01 T00191119  RH  035%=      5-min Rain = 0
KWT1 130326Z 05010KT 02/M12 A3031 RMK A01 T00191119  RH  035%=      5-min Rain = 0
KWT1 130327Z 05008KT 02/M12 A3031 RMK A01 T00191120  RH  035%=      5-min Rain = 0
KWT1 130328Z 06009KT 02/M12 A3031 RMK A01 T00181120  RH  035%=      5-min Rain = 0
KWT1 130329Z 06010KT 02/M12 A3031 RMK A01 T00161121  RH  035%=      5-min Rain = 0
KWT1 130330Z 05011KT 02/M12 A3031 RMK A01 T00161120  RH  035%=      5-min Rain = 0
KWT1 130331Z 05010KT 02/M12 A3031 RMK A01 T00161121  RH  035%=      5-min Rain = 0
KWT1 130332Z 05009KT 02/M12 A3032 RMK A01 T00171120  RH  035%=      5-min Rain = 0
KWT1 130333Z 06010KT 02/M12 A3032 RMK A01 T00171120  RH  036%=      5-min Rain = 0
KWT1 130334Z 06011KT 02/M12 A3032 RMK A01 T00161120  RH  036%=      5-min Rain = 0
KWT1 130335Z 05008KT 02/M12 A3032 RMK A01 T00151120  RH  036%=      5-min Rain = 0
KWT1 130336Z 06008KT 02/M12 A3032 RMK A01 T00151121  RH  036%=      5-min Rain = 0
KWT1 130337Z 06010KT 01/M12 A3032 RMK A01 T00141122  RH  036%=      5-min Rain = 0
KWT1 130338Z 05009KT 01/M12 A3032 RMK A01 T00141121  RH  036%=      5-min Rain = 0
KWT1 130339Z 05010KT 01/M12 A3032 RMK A01 T00141120  RH  036%=      5-min Rain = 0
KWT1 130340Z 05009KT 01/M12 A3032 RMK A01 T00141119  RH  036%=      5-min Rain = 0
KWT1 130341Z 05008KT 01/M12 A3032 RMK A01 T00131120  RH  036%=      5-min Rain = 0
KWT1 130342Z 05009KT 01/M12 A3032 RMK A01 T00121121  RH  036%=      5-min Rain = 0
KWT1 130343Z 05009KT 01/M12 A3032 RMK A01 T00121121  RH  037%=      5-min Rain = 0
KWT1 130344Z 05010KT 01/M12 A3032 RMK A01 T00121121  RH  037%=      5-min Rain = 0
KWT1 130345Z 05009KT 01/M12 A3032 RMK A01 T00121121  RH  037%=      5-min Rain = 0
KWT1 130346Z 05008KT 01/M12 A3032 RMK A01 T00111121  RH  037%=      5-min Rain = 0
KWT1 130347Z 05009KT 01/M12 A3032 RMK A01 T00101121  RH  037%=      5-min Rain = 0
KWT1 130348Z 04009KT 01/M12 A3033 RMK A01 T00091121  RH  037%=      5-min Rain = 0
KWT1 130349Z 05010KT 01/M12 A3033 RMK A01 T00091121  RH  037%=      5-min Rain = 0
KWT1 130350Z 05008KT 01/M12 A3033 RMK A01 T00091120  RH  037%=      5-min Rain = 0
KWT1 130351Z 06009KT 01/M12 A3033 RMK A01 T00101120  RH  037%=      5-min Rain = 0
KWT1 130352Z 06010KT 01/M12 A3033 RMK A01 T00101120  RH  037%=      5-min Rain = 0
KWT1 130353Z 05009KT 01/M12 A3033 RMK A01 T00101120  RH  037%=      5-min Rain = 0
KWT1 130354Z 06008KT 01/M12 A3033 RMK A01 T00101119  RH  037%=      5-min Rain = 0
KWT1 130355Z 06010G15KT 01/M12 A3033 RMK A01 T00101120  RH  037%=      5-min Rain = 0
KWT1 130356Z 05010KT 01/M12 A3033 RMK A01 T00111119  RH  037%=      5-min Rain = 0
KWT1 130357Z 06010KT 01/M12 A3033 RMK A01 T00111120  RH  037%=      5-min Rain = 0
KWT1 130358Z 05009KT 01/M12 A3033 RMK A01 T00111120  RH  037%=      5-min Rain = 0
KWT1 130359Z 07009KT 01/M12 A3033 RMK A01 T00101120  RH  037%=      5-min Rain = 0
KWT1 130400Z 06009KT 01/M12 A3033 RMK A01 T00101120  RH  037%=      5-min Rain = 0
KWT1 130401Z 06011KT 01/M12 A3033 RMK A01 T00101120  RH  037%=      5-min Rain = 0
KWT1 130402Z 06010KT 01/M12 A3033 RMK A01 T00101120  RH  037%=      5-min Rain = 0
KWT1 130403Z 05010KT 01/M12 A3033 RMK A01 T00101121  RH  037%=      5-min Rain = 0
KWT1 130404Z 05010KT 01/M12 A3034 RMK A01 T00101121  RH  037%=      5-min Rain = 0
KWT1 130405Z 05010KT 01/M12 A3034 RMK A01 T00101120  RH  037%=      5-min Rain = 0
KWT1 130406Z 05011KT 01/M12 A3034 RMK A01 T00091121  RH  037%=      5-min Rain = 0
KWT1 130407Z 06012KT 01/M12 A3034 RMK A01 T00101121  RH  037%=      5-min Rain = 0
KWT1 130408Z 06010KT 01/M12 A3034 RMK A01 T00101121  RH  037%=      5-min Rain = 0
KWT1 130409Z 06012KT 01/M12 A3034 RMK A01 T00101121  RH  037%=      5-min Rain = 0
KWT1 130410Z 06012KT 01/M12 A3034 RMK A01 T00091121  RH  037%=      5-min Rain = 0
KWT1 130411Z 05011KT 01/M12 A3034 RMK A01 T00091121  RH  037%=      5-min Rain = 0
KWT1 130412Z 05011KT 01/M12 A3034 RMK A01 T00091121  RH  037%=      5-min Rain = 0
KWT1 130413Z 06011KT 01/M12 A3034 RMK A01 T00101121  RH  037%=      5-min Rain = 0
KWT1 130414Z 06011KT 01/M12 A3034 RMK A01 T00091121  RH  037%=      5-min Rain = 0
KWT1 130415Z 06008KT 01/M12 A3034 RMK A01 T00091121  RH  037%=      5-min Rain = 0
KWT1 130416Z 05009KT 01/M12 A3034 RMK A01 T00081121  RH  037%=      5-min Rain = 0
KWT1 130417Z 05008KT 01/M12 A3034 RMK A01 T00071121  RH  038%=      5-min Rain = 0
KWT1 130418Z 04008KT 01/M12 A3034 RMK A01 T00061122  RH  038%=      5-min Rain = 0
KWT1 130419Z 04009KT 01/M12 A3034 RMK A01 T00051123  RH  038%=      5-min Rain = 0
KWT1 130420Z 05009KT 00/M12 A3034 RMK A01 T00041123  RH  038%=      5-min Rain = 0
KWT1 130421Z 05008KT 00/M12 A3034 RMK A01 T00041123  RH  038%=      5-min Rain = 0
KWT1 130422Z 06008KT 00/M12 A3034 RMK A01 T00041123  RH  038%=      5-min Rain = 0
KWT1 130423Z 06008KT 00/M12 A3034 RMK A01 T00031122  RH  039%=      5-min Rain = 0
KWT1 130424Z 06008KT 00/M12 A3034 RMK A01 T00031121  RH  039%=      5-min Rain = 0
KWT1 130425Z 05009KT 00/M12 A3034 RMK A01 T00021121  RH  039%=      5-min Rain = 0
KWT1 130426Z 05009KT 00/M12 A3035 RMK A01 T00021120  RH  039%=      5-min Rain = 0
KWT1 130427Z 05009KT 00/M12 A3035 RMK A01 T00021120  RH  039%=      5-min Rain = 0
KWT1 130428Z 04010KT 00/M12 A3035 RMK A01 T00021121  RH  039%=      5-min Rain = 0
KWT1 130429Z 04010KT 00/M12 A3035 RMK A01 T00021121  RH  039%=      5-min Rain = 0
KWT1 130430Z 05009KT 00/M12 A3035 RMK A01 T00031121  RH  039%=      5-min Rain = 0
KWT1 130431Z 04009KT 00/M12 A3035 RMK A01 T00021121  RH  039%=      5-min Rain = 0
KWT1 130432Z 04010KT 00/M12 A3036 RMK A01 T00011122  RH  039%=      5-min Rain = 0
KWT1 130433Z 05009KT 00/M12 A3036 RMK A01 T00011121  RH  039%=      5-min Rain = 0
KWT1 130434Z 04009KT 00/M12 A3036 RMK A01 T00011121  RH  039%=      5-min Rain = 0
KWT1 130435Z 04011KT 00/M12 A3036 RMK A01 T00011121  RH  039%=      5-min Rain = 0
KWT1 130436Z 04010KT 00/M12 A3036 RMK A01 T00011121  RH  039%=      5-min Rain = 0
KWT1 130437Z 04009KT 00/M12 A3036 RMK A01 T00011121  RH  039%=      5-min Rain = 0
KWT1 130438Z 04010KT 00/M12 A3036 RMK A01 T00011121  RH  039%=      5-min Rain = 0
KWT1 130439Z 04009KT 00/M12 A3037 RMK A01 T00011121  RH  040%=      5-min Rain = 0
KWT1 130440Z 04009KT 00/M12 A3037 RMK A01 T00011121  RH  040%=      5-min Rain = 0
KWT1 130441Z 03008KT 00/M12 A3036 RMK A01 T00011121  RH  040%=      5-min Rain = 0
KWT1 130442Z 04010KT 00/12 A3036 RMK A01 T00000-121  RH  040%=      5-min Rain = 0
KWT1 130443Z 05009KT 00/12 A3037 RMK A01 T00-00-121  RH  040%=      5-min Rain = 0
KWT1 130444Z 05011KT M00/M12 A3037 RMK A01 T10011121  RH  040%=      5-min Rain = 0
KWT1 130445Z 04008KT M00/M12 A3037 RMK A01 T10011121  RH  040%=      5-min Rain = 0
KWT1 130446Z 04009KT M00/M12 A3037 RMK A01 T10011120  RH  040%=      5-min Rain = 0
KWT1 130447Z 04009KT M00/M12 A3037 RMK A01 T10021121  RH  040%=      5-min Rain = 0
KWT1 130448Z 04010KT M00/M12 A3037 RMK A01 T10021120  RH  040%=      5-min Rain = 0
KWT1 130449Z 04008KT M00/M12 A3037 RMK A01 T10021120  RH  041%=      5-min Rain = 0
KWT1 130450Z 04009KT M00/M12 A3037 RMK A01 T10031121  RH  041%=      5-min Rain = 0
KWT1 130451Z 04011KT M00/M12 A3037 RMK A01 T10031121  RH  041%=      5-min Rain = 0
KWT1 130452Z 04011KT M00/M12 A3037 RMK A01 T10031120  RH  041%=      5-min Rain = 0
KWT1 130453Z 04010KT M00/M12 A3038 RMK A01 T10031120  RH  041%=      5-min Rain = 0
KWT1 130454Z 04010KT M00/M12 A3038 RMK A01 T10031120  RH  041%=      5-min Rain = 0
KWT1 130455Z 04010KT M00/M12 A3038 RMK A01 T10041121  RH  041%=      5-min Rain = 0
KWT1 130456Z 04010KT M00/M12 A3038 RMK A01 T10041121  RH  041%=      5-min Rain = 0
KWT1 130457Z 04011KT M00/M12 A3038 RMK A01 T10041120  RH  041%=      5-min Rain = 0
KWT1 130458Z 04010KT M00/M12 A3038 RMK A01 T10041120  RH  041%=      5-min Rain = 0
KWT1 130459Z 04010KT M01/M12 A3038 RMK A01 T10051121  RH  041%=      5-min Rain = 0
KWT1 130500Z 04010KT M01/M12 A3038 RMK A01 T10051120  RH  041%=      5-min Rain = 0
KWT1 130501Z 04010KT M01/M12 A3038 RMK A01 T10051120  RH  041%=      5-min Rain = 0
KWT1 130502Z 04010KT M01/M12 A3039 RMK A01 T10051120  RH  041%=      5-min Rain = 0
KWT1 130503Z 04009KT M01/M12 A3039 RMK A01 T10051120  RH  042%=      5-min Rain = 0
KWT1 130504Z 04009KT M01/M12 A3039 RMK A01 T10061120  RH  042%=      5-min Rain = 0
KWT1 130505Z 04009KT M01/M12 A3039 RMK A01 T10061120  RH  042%=      5-min Rain = 0
KWT1 130506Z 04010KT M01/M12 A3039 RMK A01 T10071121  RH  042%=      5-min Rain = 0
KWT1 130507Z 04010KT M01/M12 A3039 RMK A01 T10081120  RH  042%=      5-min Rain = 0
KWT1 130508Z 04011KT M01/M12 A3039 RMK A01 T10081120  RH  042%=      5-min Rain = 0
KWT1 130509Z 04011KT M01/M12 A3039 RMK A01 T10071119  RH  042%=      5-min Rain = 0
KWT1 130510Z 04009KT M01/M12 A3039 RMK A01 T10081119  RH  043%=      5-min Rain = 0
KWT1 130511Z 04009KT M01/M12 A3039 RMK A01 T10081120  RH  043%=      5-min Rain = 0
KWT1 130512Z 04010KT M01/M12 A3039 RMK A01 T10091120  RH  043%=      5-min Rain = 0
KWT1 130513Z 04011KT M01/M12 A3039 RMK A01 T10091119  RH  043%=      5-min Rain = 0
KWT1 130514Z 04011KT M01/M12 A3039 RMK A01 T10091119  RH  043%=      5-min Rain = 0
KWT1 130515Z 05010KT M01/M12 A3039 RMK A01 T10091119  RH  043%=      5-min Rain = 0
KWT1 130516Z 04011KT M01/M12 A3039 RMK A01 T10091119  RH  043%=      5-min Rain = 0
KWT1 130517Z 04011KT M01/M12 A3039 RMK A01 T10091119  RH  043%=      5-min Rain = 0
KWT1 130518Z 04010KT M01/M12 A3039 RMK A01 T10101119  RH  043%=      5-min Rain = 0
KWT1 130519Z 04010KT M01/M12 A3039 RMK A01 T10101119  RH  043%=      5-min Rain = 0
KWT1 130520Z 04010KT M01/M12 A3039 RMK A01 T10101119  RH  043%=      5-min Rain = 0
KWT1 130521Z 04011KT M01/M12 A3039 RMK A01 T10101119  RH  043%=      5-min Rain = 0
KWT1 130522Z 04009KT M01/M12 A304 RMK A01 T10101119  RH  043%=      5-min Rain = 0
KWT1 130523Z 04010KT M01/M12 A304 RMK A01 T10111120  RH  043%=      5-min Rain = 0
KWT1 130524Z 04010KT M01/M12 A304 RMK A01 T10121120  RH  044%=      5-min Rain = 0
KWT1 130525Z 04011KT M01/M12 A304 RMK A01 T10121120  RH  044%=      5-min Rain = 0
KWT1 130526Z 04011KT M01/M12 A304 RMK A01 T10121120  RH  044%=      5-min Rain = 0
KWT1 130527Z 04011KT M01/M12 A304 RMK A01 T10111120  RH  044%=      5-min Rain = 0
KWT1 130528Z 04011KT M01/M12 A304 RMK A01 T10111120  RH  043%=      5-min Rain = 0
KWT1 130529Z 04010KT M01/M12 A304 RMK A01 T10111120  RH  043%=      5-min Rain = 0
KWT1 130530Z 04010KT M01/M12 A304 RMK A01 T10121120  RH  043%=      5-min Rain = 0
KWT1 130531Z 04011KT M01/M12 A304 RMK A01 T10121121  RH  044%=      5-min Rain = 0
KWT1 130532Z 04010KT M01/M12 A304 RMK A01 T10131121  RH  044%=      5-min Rain = 0
KWT1 130533Z 05011KT M01/M12 A304 RMK A01 T10121120  RH  044%=      5-min Rain = 0
KWT1 130534Z 05011KT M01/M12 A304 RMK A01 T10131121  RH  044%=      5-min Rain = 0
KWT1 130535Z 04010KT M01/M12 A304 RMK A01 T10121121  RH  043%=      5-min Rain = 0
KWT1 130536Z 05010KT M01/M12 A304 RMK A01 T10121121  RH  043%=      5-min Rain = 0
KWT1 130537Z 05008KT M01/M12 A304 RMK A01 T10131121  RH  044%=      5-min Rain = 0
KWT1 130538Z 05010KT M01/M12 A304 RMK A01 T10131121  RH  044%=      5-min Rain = 0
KWT1 130539Z 05009KT M01/M12 A304 RMK A01 T10141121  RH  044%=      5-min Rain = 0
KWT1 130540Z 05009KT M01/M12 A304 RMK A01 T10131121  RH  044%=      5-min Rain = 0
KWT1 130541Z 04010KT M01/M12 A3041 RMK A01 T10141121  RH  044%=      5-min Rain = 0
KWT1 130542Z 04010KT M01/M12 A3041 RMK A01 T10141121  RH  044%=      5-min Rain = 0
KWT1 130543Z 04008KT M01/M12 A3041 RMK A01 T10141122  RH  044%=      5-min Rain = 0
KWT1 130544Z 04009KT M01/M12 A3041 RMK A01 T10141122  RH  044%=      5-min Rain = 0
KWT1 130545Z 03009KT M01/M12 A3041 RMK A01 T10141122  RH  044%=      5-min Rain = 0
KWT1 130546Z 03008KT M02/M12 A3041 RMK A01 T10151122  RH  044%=      5-min Rain = 0
KWT1 130547Z 03008KT M02/M12 A3041 RMK A01 T10151123  RH  044%=      5-min Rain = 0
KWT1 130548Z 03009KT M02/M12 A3041 RMK A01 T10161123  RH  044%=      5-min Rain = 0
KWT1 130549Z 03010KT M02/M12 A3041 RMK A01 T10161122  RH  044%=      5-min Rain = 0
KWT1 130550Z 04010KT M02/M12 A3041 RMK A01 T10161123  RH  044%=      5-min Rain = 0
KWT1 130551Z 04009KT M02/M12 A3041 RMK A01 T10161123  RH  044%=      5-min Rain = 0
KWT1 130552Z 05010KT M02/M12 A3041 RMK A01 T10161123  RH  044%=      5-min Rain = 0
KWT1 130553Z 05010KT M02/M12 A3041 RMK A01 T10151123  RH  044%=      5-min Rain = 0
KWT1 130554Z 05011KT M02/M12 A3041 RMK A01 T10151123  RH  044%=      5-min Rain = 0
KWT1 130555Z 05011KT M02/M12 A3041 RMK A01 T10151123  RH  043%=      5-min Rain = 0
KWT1 130556Z 05010KT M02/M12 A3041 RMK A01 T10151124  RH  043%=      5-min Rain = 0
KWT1 130557Z 05011KT M02/M12 A3041 RMK A01 T10151124  RH  043%=      5-min Rain = 0
KWT1 130558Z 04010KT M02/M12 A3041 RMK A01 T10151123  RH  043%=      5-min Rain = 0
KWT1 130559Z 05012KT M02/M12 A3041 RMK A01 T10151123  RH  044%=      5-min Rain = 0

Page generated in 0.0758 seconds.